Observation data for Fort McKavett on 11/15/2019      Previous  Date       Current Mesonet Observations  Soil Data  Daily Summary Page  Observations in Plain Language
KMC1 150600Z 20001KT 01/M03 A3043 RMK A01 T00091025  RH  078%=      5-min Rain = 0
KMC1 150601Z 20000KT 01/M03 A3043 RMK A01 T00081025  RH  079%=      5-min Rain = 0
KMC1 150602Z 22000KT 01/M02 A3043 RMK A01 T00081024  RH  079%=      5-min Rain = 0
KMC1 150603Z 24001KT 01/M02 A3043 RMK A01 T00081024  RH  079%=      5-min Rain = 0
KMC1 150604Z 26000KT 01/M02 A3043 RMK A01 T00081023  RH  080%=      5-min Rain = 0
KMC1 150605Z 27001KT 01/M02 A3043 RMK A01 T00081024  RH  079%=      5-min Rain = 0
KMC1 150606Z 31001KT 01/M02 A3043 RMK A01 T00081024  RH  079%=      5-min Rain = 0
KMC1 150607Z 31000KT 01/M02 A3043 RMK A01 T00071024  RH  079%=      5-min Rain = 0
KMC1 150608Z 00000KT 01/M02 A3043 RMK A01 T00071023  RH  080%=      5-min Rain = 0
KMC1 150609Z 30000KT 01/M02 A3043 RMK A01 T00071023  RH  080%=      5-min Rain = 0
KMC1 150610Z 30000KT 01/M02 A3043 RMK A01 T00071023  RH  080%=      5-min Rain = 0
KMC1 150611Z 32000KT 01/M02 A3043 RMK A01 T00081022  RH  080%=      5-min Rain = 0
KMC1 150612Z 31000KT 01/M02 A3043 RMK A01 T00091021  RH  080%=      5-min Rain = 0
KMC1 150613Z 26000KT 01/M02 A3043 RMK A01 T00091022  RH  080%=      5-min Rain = 0
KMC1 150614Z 25000KT 01/M02 A3043 RMK A01 T00091022  RH  080%=      5-min Rain = 0
KMC1 150615Z 28000KT 01/M02 A3043 RMK A01 T00081024  RH  079%=      5-min Rain = 0
KMC1 150616Z 25001KT 01/M02 A3043 RMK A01 T00071023  RH  080%=      5-min Rain = 0
KMC1 150617Z 24001KT 01/M02 A3043 RMK A01 T00071023  RH  080%=      5-min Rain = 0
KMC1 150618Z 25001KT 01/M02 A3043 RMK A01 T00071023  RH  080%=      5-min Rain = 0
KMC1 150619Z 25001KT 01/M02 A3043 RMK A01 T00071023  RH  081%=      5-min Rain = 0
KMC1 150620Z 25001KT 01/M02 A3043 RMK A01 T00071022  RH  081%=      5-min Rain = 0
KMC1 150621Z 22002KT 01/M02 A3043 RMK A01 T00091021  RH  081%=      5-min Rain = 0
KMC1 150622Z 23001KT 01/M02 A3043 RMK A01 T00081023  RH  080%=      5-min Rain = 0
KMC1 150623Z 23001KT 01/M02 A3043 RMK A01 T00081023  RH  080%=      5-min Rain = 0
KMC1 150624Z 22001KT 01/M02 A3043 RMK A01 T00071023  RH  080%=      5-min Rain = 0
KMC1 150625Z 21001KT 01/M02 A3043 RMK A01 T00061024  RH  080%=      5-min Rain = 0
KMC1 150626Z 21001KT 01/M02 A3043 RMK A01 T00061024  RH  081%=      5-min Rain = 0
KMC1 150627Z 20001KT 01/M02 A3043 RMK A01 T00051023  RH  081%=      5-min Rain = 0
KMC1 150628Z 20001KT 01/M02 A3043 RMK A01 T00051023  RH  081%=      5-min Rain = 0
KMC1 150629Z 20001KT 01/M02 A3043 RMK A01 T00051022  RH  082%=      5-min Rain = 0
KMC1 150630Z 20001KT 01/M02 A3043 RMK A01 T00061022  RH  082%=      5-min Rain = 0
KMC1 150631Z 20001KT 01/M02 A3043 RMK A01 T00061022  RH  082%=      5-min Rain = 0
KMC1 150632Z 19001KT 01/M02 A3043 RMK A01 T00051023  RH  081%=      5-min Rain = 0
KMC1 150633Z 20001KT 01/M02 A3043 RMK A01 T00051024  RH  081%=      5-min Rain = 0
KMC1 150634Z 21000KT 01/M02 A3043 RMK A01 T00051024  RH  081%=      5-min Rain = 0
KMC1 150635Z 22001KT 00/M02 A3043 RMK A01 T00041024  RH  082%=      5-min Rain = 0
KMC1 150636Z 22002KT 00/M02 A3043 RMK A01 T00041024  RH  082%=      5-min Rain = 0
KMC1 150637Z 23001KT 00/M03 A3043 RMK A01 T00031025  RH  082%=      5-min Rain = 0
KMC1 150638Z 22001KT 00/M02 A3043 RMK A01 T00021024  RH  083%=      5-min Rain = 0
KMC1 150639Z 20001KT 00/M02 A3043 RMK A01 T00021024  RH  082%=      5-min Rain = 0
KMC1 150640Z 21001KT 00/M03 A3043 RMK A01 T00011025  RH  082%=      5-min Rain = 0
KMC1 150641Z 21002KT 00/03 A3043 RMK A01 T00000-26  RH  082%=      5-min Rain = 0
KMC1 150642Z 20003KT 00/03 A3043 RMK A01 T00000-25  RH  083%=      5-min Rain = 0
KMC1 150643Z 19003KT 00/03 A3043 RMK A01 T00-00-25  RH  083%=      5-min Rain = 0
KMC1 150644Z 19003KT M00/M03 A3043 RMK A01 T10021026  RH  084%=      5-min Rain = 0
KMC1 150645Z 19003KT M00/M03 A3043 RMK A01 T10021025  RH  085%=      5-min Rain = 0
KMC1 150646Z 19003KT M00/M02 A3043 RMK A01 T10021024  RH  085%=      5-min Rain = 0
KMC1 150647Z 19003KT M00/M02 A3043 RMK A01 T10011024  RH  085%=      5-min Rain = 0
KMC1 150648Z 19003KT M00/M02 A3043 RMK A01 T10011024  RH  085%=      5-min Rain = 0
KMC1 150649Z 20003KT M00/M02 A3043 RMK A01 T10011023  RH  085%=      5-min Rain = 0
KMC1 150650Z 20003KT 00/02 A3043 RMK A01 T00000-22  RH  085%=      5-min Rain = 0
KMC1 150651Z 20003KT 00/02 A3043 RMK A01 T00000-22  RH  085%=      5-min Rain = 0
KMC1 150652Z 20003KT 00/M02 A3043 RMK A01 T00011022  RH  084%=      5-min Rain = 0
KMC1 150653Z 20003KT 00/M02 A3043 RMK A01 T00011023  RH  084%=      5-min Rain = 0
KMC1 150654Z 21003KT 00/02 A3043 RMK A01 T00000-23  RH  084%=      5-min Rain = 0
KMC1 150655Z 21003KT 00/02 A3043 RMK A01 T00000-23  RH  084%=      5-min Rain = 0
KMC1 150656Z 20003KT 00/02 A3043 RMK A01 T00000-22  RH  085%=      5-min Rain = 0
KMC1 150657Z 20003KT 00/02 A3043 RMK A01 T00-00-23  RH  085%=      5-min Rain = 0
KMC1 150658Z 20002KT 00/02 A3043 RMK A01 T00-00-23  RH  085%=      5-min Rain = 0
KMC1 150659Z 20003KT 00/02 A3043 RMK A01 T00-00-23  RH  085%=      5-min Rain = 0
KMC1 150700Z 20003KT M00/M02 A3043 RMK A01 T10011024  RH  085%=      5-min Rain = 0
KMC1 150701Z 20003KT M00/M02 A3043 RMK A01 T10011024  RH  085%=      5-min Rain = 0
KMC1 150702Z 21003KT M00/M02 A3043 RMK A01 T10011024  RH  085%=      5-min Rain = 0
KMC1 150703Z 21003KT M00/M02 A3043 RMK A01 T10011024  RH  085%=      5-min Rain = 0
KMC1 150704Z 21003KT M00/M02 A3043 RMK A01 T10011023  RH  085%=      5-min Rain = 0
KMC1 150705Z 21004KT M00/M02 A3043 RMK A01 T10011023  RH  085%=      5-min Rain = 0
KMC1 150706Z 21004KT M00/M02 A3043 RMK A01 T10021024  RH  085%=      5-min Rain = 0
KMC1 150707Z 21004KT M00/M02 A3043 RMK A01 T10021024  RH  085%=      5-min Rain = 0
KMC1 150708Z 22004KT M00/M02 A3043 RMK A01 T10031024  RH  085%=      5-min Rain = 0
KMC1 150709Z 22003KT M00/M02 A3043 RMK A01 T10031024  RH  086%=      5-min Rain = 0
KMC1 150710Z 21003KT M00/M02 A3043 RMK A01 T10031023  RH  086%=      5-min Rain = 0
KMC1 150711Z 21003KT M00/M02 A3043 RMK A01 T10031023  RH  086%=      5-min Rain = 0
KMC1 150712Z 20003KT M00/M02 A3043 RMK A01 T10031024  RH  086%=      5-min Rain = 0
KMC1 150713Z 20002KT M00/M02 A3043 RMK A01 T10031023  RH  086%=      5-min Rain = 0
KMC1 150714Z 20002KT M00/M02 A3043 RMK A01 T10031024  RH  086%=      5-min Rain = 0
KMC1 150715Z 20003KT M00/M02 A3043 RMK A01 T10031024  RH  086%=      5-min Rain = 0
KMC1 150716Z 21003KT M00/M02 A3043 RMK A01 T10031024  RH  086%=      5-min Rain = 0
KMC1 150717Z 22002KT M00/M02 A3043 RMK A01 T10031024  RH  086%=      5-min Rain = 0
KMC1 150718Z 23002KT M00/M03 A3043 RMK A01 T10041025  RH  086%=      5-min Rain = 0
KMC1 150719Z 23002KT M00/M03 A3043 RMK A01 T10041025  RH  086%=      5-min Rain = 0
KMC1 150720Z 23002KT M00/M03 A3043 RMK A01 T10041025  RH  086%=      5-min Rain = 0
KMC1 150721Z 24002KT M00/M03 A3043 RMK A01 T10041025  RH  086%=      5-min Rain = 0
KMC1 150722Z 24002KT M01/M03 A3043 RMK A01 T10051025  RH  086%=      5-min Rain = 0
KMC1 150723Z 24002KT M01/M02 A3043 RMK A01 T10051024  RH  087%=      5-min Rain = 0
KMC1 150724Z 25002KT M00/M02 A3043 RMK A01 T10041023  RH  087%=      5-min Rain = 0
KMC1 150725Z 25002KT M00/M02 A3043 RMK A01 T10031022  RH  087%=      5-min Rain = 0
KMC1 150726Z 25002KT M00/M02 A3043 RMK A01 T10021021  RH  087%=      5-min Rain = 0
KMC1 150727Z 24002KT M00/M02 A3043 RMK A01 T10011022  RH  086%=      5-min Rain = 0
KMC1 150728Z 24002KT M00/M02 A3043 RMK A01 T10011022  RH  086%=      5-min Rain = 0
KMC1 150729Z 24002KT M00/M02 A3043 RMK A01 T10011023  RH  085%=      5-min Rain = 0
KMC1 150730Z 24002KT M00/M03 A3043 RMK A01 T10021025  RH  085%=      5-min Rain = 0
KMC1 150731Z 24002KT M00/M03 A3043 RMK A01 T10041026  RH  085%=      5-min Rain = 0
KMC1 150732Z 24002KT M00/M03 A3043 RMK A01 T10041026  RH  085%=      5-min Rain = 0
KMC1 150733Z 24002KT M01/M03 A3043 RMK A01 T10051026  RH  086%=      5-min Rain = 0
KMC1 150734Z 24002KT M01/M03 A3043 RMK A01 T10061026  RH  086%=      5-min Rain = 0
KMC1 150735Z 24002KT M01/M03 A3043 RMK A01 T10071026  RH  087%=      5-min Rain = 0
KMC1 150736Z 24002KT M01/M03 A3043 RMK A01 T10071026  RH  087%=      5-min Rain = 0
KMC1 150737Z 23002KT M01/M03 A3043 RMK A01 T10071026  RH  087%=      5-min Rain = 0
KMC1 150738Z 23002KT M01/M03 A3043 RMK A01 T10071025  RH  088%=      5-min Rain = 0
KMC1 150739Z 23002KT M01/M02 A3043 RMK A01 T10061023  RH  088%=      5-min Rain = 0
KMC1 150740Z 23002KT M01/M02 A3043 RMK A01 T10051022  RH  089%=      5-min Rain = 0
KMC1 150741Z 23002KT M01/M02 A3043 RMK A01 T10051022  RH  088%=      5-min Rain = 0
KMC1 150742Z 23003KT M01/M02 A3043 RMK A01 T10051022  RH  088%=      5-min Rain = 0
KMC1 150743Z 23003KT M00/M02 A3043 RMK A01 T10041022  RH  088%=      5-min Rain = 0
KMC1 150744Z 22003KT M00/M02 A3043 RMK A01 T10041023  RH  087%=      5-min Rain = 0
KMC1 150745Z 23003KT M00/M02 A3043 RMK A01 T10041022  RH  087%=      5-min Rain = 0
KMC1 150746Z 23003KT M00/M02 A3043 RMK A01 T10031021  RH  088%=      5-min Rain = 0
KMC1 150747Z 23003KT M00/M02 A3043 RMK A01 T10021020  RH  088%=      5-min Rain = 0
KMC1 150748Z 23003KT M00/M02 A3043 RMK A01 T10021020  RH  087%=      5-min Rain = 0
KMC1 150749Z 23002KT M00/M02 A3043 RMK A01 T10021021  RH  087%=      5-min Rain = 0
KMC1 150750Z 24002KT M00/M02 A3043 RMK A01 T10021022  RH  087%=      5-min Rain = 0
KMC1 150751Z 24002KT M00/M02 A3043 RMK A01 T10031022  RH  087%=      5-min Rain = 0
KMC1 150752Z 24002KT M00/M02 A3043 RMK A01 T10031021  RH  087%=      5-min Rain = 0
KMC1 150753Z 24002KT M00/M02 A3043 RMK A01 T10031022  RH  087%=      5-min Rain = 0
KMC1 150754Z 24002KT M00/M02 A3043 RMK A01 T10031023  RH  087%=      5-min Rain = 0
KMC1 150755Z 24002KT M00/M02 A3042 RMK A01 T10041023  RH  087%=      5-min Rain = 0
KMC1 150756Z 24002KT M00/M02 A3042 RMK A01 T10041024  RH  087%=      5-min Rain = 0
KMC1 150757Z 24002KT M01/M02 A3042 RMK A01 T10051024  RH  087%=      5-min Rain = 0
KMC1 150758Z 24002KT M01/M02 A3042 RMK A01 T10061024  RH  087%=      5-min Rain = 0
KMC1 150759Z 24002KT M01/M02 A3042 RMK A01 T10061024  RH  088%=      5-min Rain = 0
KMC1 150800Z 24002KT M01/M02 A3042 RMK A01 T10061023  RH  089%=      5-min Rain = 0
KMC1 150801Z 24002KT M01/M02 A3042 RMK A01 T10061021  RH  089%=      5-min Rain = 0
KMC1 150802Z 24002KT M00/M02 A3042 RMK A01 T10041019  RH  090%=      5-min Rain = 0
KMC1 150803Z 24002KT M00/M02 A3042 RMK A01 T10031018  RH  090%=      5-min Rain = 0
KMC1 150804Z 24002KT M00/M02 A3042 RMK A01 T10021017  RH  090%=      5-min Rain = 0
KMC1 150805Z 25002KT M00/M02 A3042 RMK A01 T10011017  RH  089%=      5-min Rain = 0
KMC1 150806Z 25002KT M00/M02 A3042 RMK A01 T10011018  RH  088%=      5-min Rain = 0
KMC1 150807Z 24002KT 00/02 A3042 RMK A01 T00-00-17  RH  088%=      5-min Rain = 0
KMC1 150808Z 24001KT 00/M02 A3042 RMK A01 T00011017  RH  088%=      5-min Rain = 0
KMC1 150809Z 24001KT 00/02 A3042 RMK A01 T00000-17  RH  088%=      5-min Rain = 0
KMC1 150810Z 24001KT 00/02 A3042 RMK A01 T00-00-18  RH  088%=      5-min Rain = 0
KMC1 150811Z 24001KT 00/02 A3042 RMK A01 T00000-18  RH  088%=      5-min Rain = 0
KMC1 150812Z 25001KT 00/02 A3042 RMK A01 T00000-18  RH  088%=      5-min Rain = 0
KMC1 150813Z 25002KT 00/02 A3042 RMK A01 T00000-18  RH  088%=      5-min Rain = 0
KMC1 150814Z 26002KT 00/02 A3042 RMK A01 T00-00-18  RH  088%=      5-min Rain = 0
KMC1 150815Z 26002KT 00/02 A3042 RMK A01 T00-00-17  RH  088%=      5-min Rain = 0
KMC1 150816Z 27002KT 00/02 A3042 RMK A01 T00-00-16  RH  089%=      5-min Rain = 0
KMC1 150817Z 27001KT 00/M02 A3042 RMK A01 T00011015  RH  089%=      5-min Rain = 0
KMC1 150818Z 27001KT 00/M02 A3042 RMK A01 T00011015  RH  089%=      5-min Rain = 0
KMC1 150819Z 27001KT 00/M02 A3042 RMK A01 T00011015  RH  089%=      5-min Rain = 0
KMC1 150820Z 27001KT 00/M02 A3042 RMK A01 T00011016  RH  089%=      5-min Rain = 0
KMC1 150821Z 27001KT 00/M02 A3042 RMK A01 T00011016  RH  088%=      5-min Rain = 0
KMC1 150822Z 27001KT 00/M02 A3042 RMK A01 T00011017  RH  088%=      5-min Rain = 0
KMC1 150823Z 27001KT 00/02 A3042 RMK A01 T00-00-18  RH  087%=      5-min Rain = 0
KMC1 150824Z 27001KT M00/M02 A3042 RMK A01 T10011021  RH  086%=      5-min Rain = 0
KMC1 150825Z 27001KT M00/M02 A3042 RMK A01 T10021023  RH  086%=      5-min Rain = 0
KMC1 150826Z 26001KT M00/M03 A3042 RMK A01 T10041025  RH  086%=      5-min Rain = 0
KMC1 150827Z 26001KT M01/M03 A3042 RMK A01 T10051026  RH  086%=      5-min Rain = 0
KMC1 150828Z 26001KT M01/M03 A3042 RMK A01 T10071027  RH  087%=      5-min Rain = 0
KMC1 150829Z 26001KT M01/M03 A3042 RMK A01 T10081027  RH  087%=      5-min Rain = 0
KMC1 150830Z 26001KT M01/M03 A3042 RMK A01 T10101028  RH  087%=      5-min Rain = 0
KMC1 150831Z 26001KT M01/M03 A3042 RMK A01 T10111029  RH  088%=      5-min Rain = 0
KMC1 150832Z 27001KT M01/M03 A3042 RMK A01 T10121029  RH  088%=      5-min Rain = 0
KMC1 150833Z 27001KT M01/M03 A3042 RMK A01 T10141031  RH  088%=      5-min Rain = 0
KMC1 150834Z 27001KT M02/M03 A3042 RMK A01 T10151032  RH  088%=      5-min Rain = 0
KMC1 150835Z 26001KT M02/M03 A3042 RMK A01 T10161033  RH  088%=      5-min Rain = 0
KMC1 150836Z 26001KT M02/M03 A3042 RMK A01 T10171033  RH  089%=      5-min Rain = 0
KMC1 150837Z 26001KT M02/M03 A3042 RMK A01 T10181034  RH  089%=      5-min Rain = 0
KMC1 150838Z 25001KT M02/M03 A3042 RMK A01 T10191034  RH  089%=      5-min Rain = 0
KMC1 150839Z 26001KT M02/M03 A3042 RMK A01 T10191033  RH  090%=      5-min Rain = 0
KMC1 150840Z 25002KT M02/M03 A3042 RMK A01 T10191033  RH  091%=      5-min Rain = 0
KMC1 150841Z 25002KT M02/M03 A3042 RMK A01 T10201032  RH  091%=      5-min Rain = 0
KMC1 150842Z 25002KT M02/M03 A3042 RMK A01 T10201032  RH  091%=      5-min Rain = 0
KMC1 150843Z 25002KT M02/M03 A3042 RMK A01 T10201032  RH  092%=      5-min Rain = 0
KMC1 150844Z 25002KT M02/M03 A3042 RMK A01 T10211033  RH  092%=      5-min Rain = 0
KMC1 150845Z 26002KT M02/M03 A3042 RMK A01 T10221033  RH  092%=      5-min Rain = 0
KMC1 150846Z 26002KT M02/M03 A3042 RMK A01 T10211033  RH  092%=      5-min Rain = 0
KMC1 150847Z 26002KT M02/M03 A3042 RMK A01 T10211032  RH  092%=      5-min Rain = 0
KMC1 150848Z 26002KT M02/M03 A3042 RMK A01 T10211032  RH  092%=      5-min Rain = 0
KMC1 150849Z 26002KT M02/M03 A3042 RMK A01 T10221033  RH  092%=      5-min Rain = 0
KMC1 150850Z 26002KT M02/M03 A3042 RMK A01 T10231034  RH  092%=      5-min Rain = 0
KMC1 150851Z 26002KT M02/M04 A3042 RMK A01 T10231035  RH  092%=      5-min Rain = 0
KMC1 150852Z 26002KT M02/M04 A3042 RMK A01 T10241035  RH  092%=      5-min Rain = 0
KMC1 150853Z 26002KT M02/M04 A3042 RMK A01 T10241036  RH  092%=      5-min Rain = 0
KMC1 150854Z 26002KT M03/M04 A3042 RMK A01 T10251036  RH  092%=      5-min Rain = 0
KMC1 150855Z 27002KT M03/M04 A3042 RMK A01 T10251037  RH  092%=      5-min Rain = 0
KMC1 150856Z 27002KT M03/M04 A3042 RMK A01 T10261037  RH  092%=      5-min Rain = 0
KMC1 150857Z 27002KT M03/M04 A3042 RMK A01 T10261037  RH  092%=      5-min Rain = 0
KMC1 150858Z 27002KT M03/M04 A3042 RMK A01 T10261037  RH  092%=      5-min Rain = 0
KMC1 150859Z 27003KT M03/M04 A3042 RMK A01 T10271038  RH  092%=      5-min Rain = 0
KMC1 150900Z 27003KT M03/M04 A3042 RMK A01 T10271038  RH  092%=      5-min Rain = 0
KMC1 150901Z 27003KT M03/M04 A3042 RMK A01 T10271038  RH  093%=      5-min Rain = 0
KMC1 150902Z 27003KT M03/M04 A3042 RMK A01 T10281038  RH  093%=      5-min Rain = 0
KMC1 150903Z 27003KT M03/M04 A3042 RMK A01 T10281038  RH  093%=      5-min Rain = 0
KMC1 150904Z 27003KT M03/M04 A3042 RMK A01 T10281038  RH  093%=      5-min Rain = 0
KMC1 150905Z 27003KT M03/M04 A3042 RMK A01 T10281038  RH  093%=      5-min Rain = 0
KMC1 150906Z 27003KT M03/M04 A3042 RMK A01 T10281038  RH  093%=      5-min Rain = 0
KMC1 150907Z 27003KT M03/M04 A3042 RMK A01 T10291038  RH  093%=      5-min Rain = 0
KMC1 150908Z 27003KT M03/M04 A3042 RMK A01 T10291038  RH  093%=      5-min Rain = 0
KMC1 150909Z 27003KT M03/M04 A3042 RMK A01 T10291038  RH  094%=      5-min Rain = 0
KMC1 150910Z 27003KT M03/M04 A3042 RMK A01 T10291038  RH  094%=      5-min Rain = 0
KMC1 150911Z 28003KT M03/M04 A3042 RMK A01 T10291038  RH  094%=      5-min Rain = 0
KMC1 150912Z 28003KT M03/M04 A3042 RMK A01 T10291037  RH  094%=      5-min Rain = 0
KMC1 150913Z 28003KT M03/M04 A3042 RMK A01 T10291037  RH  094%=      5-min Rain = 0
KMC1 150914Z 28003KT M03/M04 A3042 RMK A01 T10291037  RH  094%=      5-min Rain = 0
KMC1 150915Z 28003KT M03/M04 A3042 RMK A01 T10281036  RH  094%=      5-min Rain = 0
KMC1 150916Z 29003KT M03/M04 A3042 RMK A01 T10281036  RH  094%=      5-min Rain = 0
KMC1 150917Z 29003KT M03/M04 A3042 RMK A01 T10281037  RH  094%=      5-min Rain = 0
KMC1 150918Z 29003KT M03/M04 A3042 RMK A01 T10291037  RH  094%=      5-min Rain = 0
KMC1 150919Z 29003KT M03/M04 A3042 RMK A01 T10291038  RH  094%=      5-min Rain = 0
KMC1 150920Z 30003KT M03/M04 A3042 RMK A01 T10291038  RH  094%=      5-min Rain = 0
KMC1 150921Z 30003KT M03/M04 A3042 RMK A01 T10291038  RH  094%=      5-min Rain = 0
KMC1 150922Z 30003KT M03/M04 A3042 RMK A01 T10291038  RH  094%=      5-min Rain = 0
KMC1 150923Z 30002KT M03/M04 A3042 RMK A01 T10291038  RH  094%=      5-min Rain = 0
KMC1 150924Z 29002KT M03/M04 A3042 RMK A01 T10301039  RH  094%=      5-min Rain = 0
KMC1 150925Z 29002KT M03/M04 A3042 RMK A01 T10301039  RH  094%=      5-min Rain = 0
KMC1 150926Z 28002KT M03/M04 A3042 RMK A01 T10301038  RH  094%=      5-min Rain = 0
KMC1 150927Z 28003KT M03/M04 A3042 RMK A01 T10301038  RH  094%=      5-min Rain = 0
KMC1 150928Z 28003KT M03/M04 A3042 RMK A01 T10291037  RH  094%=      5-min Rain = 0
KMC1 150929Z 27003KT M03/M04 A3042 RMK A01 T10291037  RH  094%=      5-min Rain = 0
KMC1 150930Z 27003KT M03/M04 A3042 RMK A01 T10291037  RH  094%=      5-min Rain = 0
KMC1 150931Z 26003KT M03/M04 A3042 RMK A01 T10291037  RH  094%=      5-min Rain = 0
KMC1 150932Z 26003KT M03/M04 A3042 RMK A01 T10291037  RH  094%=      5-min Rain = 0
KMC1 150933Z 26003KT M03/M04 A3042 RMK A01 T10291037  RH  094%=      5-min Rain = 0
KMC1 150934Z 26003KT M03/M04 A3042 RMK A01 T10291037  RH  094%=      5-min Rain = 0
KMC1 150935Z 27002KT M03/M04 A3042 RMK A01 T10291037  RH  094%=      5-min Rain = 0
KMC1 150936Z 27002KT M03/M04 A3042 RMK A01 T10281036  RH  094%=      5-min Rain = 0
KMC1 150937Z 27003KT M03/M04 A3042 RMK A01 T10281036  RH  094%=      5-min Rain = 0
KMC1 150938Z 27003KT M03/M04 A3042 RMK A01 T10281036  RH  094%=      5-min Rain = 0
KMC1 150939Z 26003KT M03/M04 A3042 RMK A01 T10281036  RH  094%=      5-min Rain = 0
KMC1 150940Z 26003KT M03/M04 A3042 RMK A01 T10281036  RH  094%=      5-min Rain = 0
KMC1 150941Z 26002KT M03/M04 A3042 RMK A01 T10281036  RH  095%=      5-min Rain = 0
KMC1 150942Z 26002KT M03/M04 A3042 RMK A01 T10281035  RH  095%=      5-min Rain = 0
KMC1 150943Z 25002KT M03/M04 A3042 RMK A01 T10281036  RH  095%=      5-min Rain = 0
KMC1 150944Z 25002KT M03/M04 A3042 RMK A01 T10281035  RH  095%=      5-min Rain = 0
KMC1 150945Z 25002KT M03/M04 A3042 RMK A01 T10281036  RH  094%=      5-min Rain = 0
KMC1 150946Z 25002KT M03/M04 A3042 RMK A01 T10281035  RH  094%=      5-min Rain = 0
KMC1 150947Z 25003KT M03/M04 A3042 RMK A01 T10281036  RH  094%=      5-min Rain = 0
KMC1 150948Z 25003KT M03/M04 A3042 RMK A01 T10281036  RH  094%=      5-min Rain = 0
KMC1 150949Z 25003KT M03/M04 A3042 RMK A01 T10281037  RH  094%=      5-min Rain = 0
KMC1 150950Z 25002KT M03/M04 A3042 RMK A01 T10281037  RH  094%=      5-min Rain = 0
KMC1 150951Z 25002KT M03/M04 A3042 RMK A01 T10281036  RH  094%=      5-min Rain = 0
KMC1 150952Z 25003KT M03/M04 A3042 RMK A01 T10281036  RH  094%=      5-min Rain = 0
KMC1 150953Z 25002KT M03/M04 A3042 RMK A01 T10281036  RH  094%=      5-min Rain = 0
KMC1 150954Z 25003KT M03/M04 A3042 RMK A01 T10281036  RH  095%=      5-min Rain = 0
KMC1 150955Z 24003KT M03/M04 A3042 RMK A01 T10281035  RH  095%=      5-min Rain = 0
KMC1 150956Z 24003KT M03/M03 A3042 RMK A01 T10271034  RH  095%=      5-min Rain = 0
KMC1 150957Z 24003KT M03/M03 A3042 RMK A01 T10271034  RH  095%=      5-min Rain = 0
KMC1 150958Z 23003KT M03/M03 A3042 RMK A01 T10261033  RH  095%=      5-min Rain = 0
KMC1 150959Z 22003KT M03/M03 A3042 RMK A01 T10261033  RH  095%=      5-min Rain = 0
KMC1 151000Z 22003KT M03/M03 A3043 RMK A01 T10251033  RH  095%=      5-min Rain = 0
KMC1 151001Z 22003KT M03/M03 A3043 RMK A01 T10261033  RH  095%=      5-min Rain = 0
KMC1 151002Z 21003KT M03/M03 A3043 RMK A01 T10251033  RH  095%=      5-min Rain = 0
KMC1 151003Z 21003KT M03/M03 A3043 RMK A01 T10251033  RH  095%=      5-min Rain = 0
KMC1 151004Z 22003KT M03/M03 A3043 RMK A01 T10251033  RH  095%=      5-min Rain = 0
KMC1 151005Z 22003KT M03/M03 A3043 RMK A01 T10251032  RH  095%=      5-min Rain = 0
KMC1 151006Z 23003KT M03/M03 A3043 RMK A01 T10251032  RH  095%=      5-min Rain = 0
KMC1 151007Z 23002KT M02/M03 A3043 RMK A01 T10241032  RH  095%=      5-min Rain = 0
KMC1 151008Z 24002KT M02/M03 A3043 RMK A01 T10241031  RH  095%=      5-min Rain = 0
KMC1 151009Z 24002KT M02/M03 A3042 RMK A01 T10241031  RH  095%=      5-min Rain = 0
KMC1 151010Z 24002KT M02/M03 A3042 RMK A01 T10231030  RH  095%=      5-min Rain = 0
KMC1 151011Z 25002KT M02/M03 A3042 RMK A01 T10221029  RH  095%=      5-min Rain = 0
KMC1 151012Z 25002KT M02/M03 A3042 RMK A01 T10221029  RH  095%=      5-min Rain = 0
KMC1 151013Z 26002KT M02/M03 A3042 RMK A01 T10221029  RH  095%=      5-min Rain = 0
KMC1 151014Z 26002KT M02/M03 A3042 RMK A01 T10211028  RH  095%=      5-min Rain = 0
KMC1 151015Z 27003KT M02/M03 A3042 RMK A01 T10211028  RH  095%=      5-min Rain = 0
KMC1 151016Z 27003KT M02/M03 A3042 RMK A01 T10211028  RH  095%=      5-min Rain = 0
KMC1 151017Z 27003KT M02/M03 A3042 RMK A01 T10211028  RH  095%=      5-min Rain = 0
KMC1 151018Z 26003KT M02/M03 A3042 RMK A01 T10201028  RH  095%=      5-min Rain = 0
KMC1 151019Z 27003KT M02/M03 A3042 RMK A01 T10201028  RH  095%=      5-min Rain = 0
KMC1 151020Z 26003KT M02/M03 A3042 RMK A01 T10201028  RH  095%=      5-min Rain = 0
KMC1 151021Z 26003KT M02/M03 A3042 RMK A01 T10201028  RH  095%=      5-min Rain = 0
KMC1 151022Z 26003KT M02/M03 A3042 RMK A01 T10201028  RH  094%=      5-min Rain = 0
KMC1 151023Z 26003KT M02/M03 A3042 RMK A01 T10201028  RH  094%=      5-min Rain = 0
KMC1 151024Z 26003KT M02/M03 A3042 RMK A01 T10201028  RH  094%=      5-min Rain = 0
KMC1 151025Z 26003KT M02/M03 A3042 RMK A01 T10201028  RH  094%=      5-min Rain = 0
KMC1 151026Z 26003KT M02/M03 A3042 RMK A01 T10201028  RH  094%=      5-min Rain = 0
KMC1 151027Z 26002KT M02/M03 A3042 RMK A01 T10201028  RH  094%=      5-min Rain = 0
KMC1 151028Z 27002KT M02/M03 A3042 RMK A01 T10201028  RH  094%=      5-min Rain = 0
KMC1 151029Z 27003KT M02/M03 A3042 RMK A01 T10201027  RH  095%=      5-min Rain = 0
KMC1 151030Z 27003KT M02/M03 A3042 RMK A01 T10201027  RH  095%=      5-min Rain = 0
KMC1 151031Z 28003KT M02/M03 A3042 RMK A01 T10191027  RH  095%=      5-min Rain = 0
KMC1 151032Z 27003KT M02/M03 A3042 RMK A01 T10191027  RH  095%=      5-min Rain = 0
KMC1 151033Z 27003KT M02/M03 A3042 RMK A01 T10191026  RH  095%=      5-min Rain = 0
KMC1 151034Z 27003KT M02/M03 A3042 RMK A01 T10181026  RH  095%=      5-min Rain = 0
KMC1 151035Z 27003KT M02/M03 A3042 RMK A01 T10181026  RH  095%=      5-min Rain = 0
KMC1 151036Z 27003KT M02/M03 A3042 RMK A01 T10181026  RH  094%=      5-min Rain = 0
KMC1 151037Z 26003KT M02/M03 A3042 RMK A01 T10191027  RH  094%=      5-min Rain = 0
KMC1 151038Z 26003KT M02/M03 A3042 RMK A01 T10191028  RH  094%=      5-min Rain = 0
KMC1 151039Z 26003KT M02/M03 A3042 RMK A01 T10201029  RH  094%=      5-min Rain = 0
KMC1 151040Z 25003KT M02/M03 A3042 RMK A01 T10201029  RH  094%=      5-min Rain = 0
KMC1 151041Z 25003KT M02/M03 A3042 RMK A01 T10201029  RH  094%=      5-min Rain = 0
KMC1 151042Z 24003KT M02/M03 A3042 RMK A01 T10211030  RH  094%=      5-min Rain = 0
KMC1 151043Z 24003KT M02/M03 A3042 RMK A01 T10211030  RH  094%=      5-min Rain = 0
KMC1 151044Z 24003KT M02/M03 A3042 RMK A01 T10211030  RH  094%=      5-min Rain = 0
KMC1 151045Z 24003KT M02/M03 A3042 RMK A01 T10221031  RH  094%=      5-min Rain = 0
KMC1 151046Z 24004KT M02/M03 A3043 RMK A01 T10231032  RH  093%=      5-min Rain = 0
KMC1 151047Z 24004KT M02/M03 A3043 RMK A01 T10241034  RH  093%=      5-min Rain = 0
KMC1 151048Z 24004KT M03/M04 A3043 RMK A01 T10251035  RH  093%=      5-min Rain = 0
KMC1 151049Z 24004KT M03/M04 A3043 RMK A01 T10261036  RH  093%=      5-min Rain = 0
KMC1 151050Z 25004KT M03/M04 A3043 RMK A01 T10271036  RH  093%=      5-min Rain = 0
KMC1 151051Z 25004KT M03/M04 A3043 RMK A01 T10271036  RH  094%=      5-min Rain = 0
KMC1 151052Z 24004KT M03/M04 A3043 RMK A01 T10271036  RH  094%=      5-min Rain = 0
KMC1 151053Z 24004KT M03/M04 A3043 RMK A01 T10281036  RH  094%=      5-min Rain = 0
KMC1 151054Z 25003KT M03/M04 A3043 RMK A01 T10281036  RH  094%=      5-min Rain = 0
KMC1 151055Z 24003KT M03/M04 A3043 RMK A01 T10281036  RH  094%=      5-min Rain = 0
KMC1 151056Z 24003KT M03/M04 A3043 RMK A01 T10281036  RH  094%=      5-min Rain = 0
KMC1 151057Z 24003KT M03/M04 A3043 RMK A01 T10291037  RH  094%=      5-min Rain = 0
KMC1 151058Z 23003KT M03/M04 A3043 RMK A01 T10291037  RH  094%=      5-min Rain = 0
KMC1 151059Z 23003KT M03/M04 A3043 RMK A01 T10301037  RH  094%=      5-min Rain = 0
KMC1 151100Z 23004KT M03/M04 A3043 RMK A01 T10301038  RH  094%=      5-min Rain = 0
KMC1 151101Z 22004KT M03/M04 A3043 RMK A01 T10301038  RH  094%=      5-min Rain = 0
KMC1 151102Z 23004KT M03/M04 A3043 RMK A01 T10301038  RH  094%=      5-min Rain = 0
KMC1 151103Z 23004KT M03/M04 A3043 RMK A01 T10301038  RH  094%=      5-min Rain = 0
KMC1 151104Z 22004KT M03/M04 A3043 RMK A01 T10301038  RH  094%=      5-min Rain = 0
KMC1 151105Z 22004KT M03/M04 A3043 RMK A01 T10301037  RH  095%=      5-min Rain = 0
KMC1 151106Z 23004KT M03/M04 A3043 RMK A01 T10301037  RH  095%=      5-min Rain = 0
KMC1 151107Z 23003KT M03/M04 A3043 RMK A01 T10291036  RH  095%=      5-min Rain = 0
KMC1 151108Z 23003KT M03/M04 A3043 RMK A01 T10291036  RH  095%=      5-min Rain = 0
KMC1 151109Z 23003KT M03/M04 A3043 RMK A01 T10281036  RH  095%=      5-min Rain = 0
KMC1 151110Z 23003KT M03/M04 A3043 RMK A01 T10281036  RH  095%=      5-min Rain = 0
KMC1 151111Z 23003KT M03/M04 A3043 RMK A01 T10281035  RH  095%=      5-min Rain = 0
KMC1 151112Z 24003KT M03/M03 A3043 RMK A01 T10271033  RH  095%=      5-min Rain = 0
KMC1 151113Z 24003KT M03/M03 A3043 RMK A01 T10261032  RH  095%=      5-min Rain = 0
KMC1 151114Z 24003KT M03/M03 A3042 RMK A01 T10251032  RH  095%=      5-min Rain = 0
KMC1 151115Z 24003KT M02/M03 A3042 RMK A01 T10241031  RH  095%=      5-min Rain = 0
KMC1 151116Z 24003KT M02/M03 A3042 RMK A01 T10241031  RH  095%=      5-min Rain = 0
KMC1 151117Z 24003KT M02/M03 A3042 RMK A01 T10231030  RH  095%=      5-min Rain = 0
KMC1 151118Z 25003KT M02/M03 A3042 RMK A01 T10231030  RH  095%=      5-min Rain = 0
KMC1 151119Z 25003KT M02/M03 A3042 RMK A01 T10231030  RH  095%=      5-min Rain = 0
KMC1 151120Z 25003KT M02/M03 A3042 RMK A01 T10231030  RH  095%=      5-min Rain = 0
KMC1 151121Z 24003KT M02/M03 A3042 RMK A01 T10231030  RH  095%=      5-min Rain = 0
KMC1 151122Z 23003KT M02/M03 A3042 RMK A01 T10231030  RH  095%=      5-min Rain = 0
KMC1 151123Z 23003KT M02/M03 A3042 RMK A01 T10221030  RH  095%=      5-min Rain = 0
KMC1 151124Z 22003KT M02/M03 A3042 RMK A01 T10221029  RH  095%=      5-min Rain = 0
KMC1 151125Z 22003KT M02/M03 A3042 RMK A01 T10221029  RH  095%=      5-min Rain = 0
KMC1 151126Z 22003KT M02/M03 A3042 RMK A01 T10211028  RH  095%=      5-min Rain = 0
KMC1 151127Z 21003KT M02/M03 A3042 RMK A01 T10211028  RH  095%=      5-min Rain = 0
KMC1 151128Z 21003KT M02/M03 A3042 RMK A01 T10211028  RH  095%=      5-min Rain = 0
KMC1 151129Z 22003KT M02/M03 A3042 RMK A01 T10211028  RH  095%=      5-min Rain = 0
KMC1 151130Z 22003KT M02/M03 A3042 RMK A01 T10211029  RH  095%=      5-min Rain = 0
KMC1 151131Z 21003KT M02/M03 A3042 RMK A01 T10221029  RH  094%=      5-min Rain = 0
KMC1 151132Z 21003KT M02/M03 A3042 RMK A01 T10221030  RH  094%=      5-min Rain = 0
KMC1 151133Z 22003KT M02/M03 A3042 RMK A01 T10221030  RH  094%=      5-min Rain = 0
KMC1 151134Z 22003KT M02/M03 A3042 RMK A01 T10221030  RH  094%=      5-min Rain = 0
KMC1 151135Z 22003KT M02/M03 A3042 RMK A01 T10231031  RH  094%=      5-min Rain = 0
KMC1 151136Z 21003KT M02/M03 A3042 RMK A01 T10231031  RH  094%=      5-min Rain = 0
KMC1 151137Z 22003KT M02/M03 A3042 RMK A01 T10241032  RH  094%=      5-min Rain = 0
KMC1 151138Z 22003KT M02/M03 A3042 RMK A01 T10241032  RH  094%=      5-min Rain = 0
KMC1 151139Z 22003KT M02/M03 A3042 RMK A01 T10241031  RH  094%=      5-min Rain = 0
KMC1 151140Z 22003KT M02/M03 A3042 RMK A01 T10241032  RH  094%=      5-min Rain = 0
KMC1 151141Z 22003KT M03/M03 A3042 RMK A01 T10251033  RH  094%=      5-min Rain = 0
KMC1 151142Z 21003KT M03/M03 A3042 RMK A01 T10251033  RH  094%=      5-min Rain = 0
KMC1 151143Z 22003KT M03/M03 A3042 RMK A01 T10261033  RH  094%=      5-min Rain = 0
KMC1 151144Z 21003KT M03/M03 A3042 RMK A01 T10251032  RH  095%=      5-min Rain = 0
KMC1 151145Z 22003KT M03/M03 A3042 RMK A01 T10251033  RH  095%=      5-min Rain = 0
KMC1 151146Z 22003KT M03/M03 A3042 RMK A01 T10251033  RH  095%=      5-min Rain = 0
KMC1 151147Z 22003KT M03/M03 A3042 RMK A01 T10261033  RH  095%=      5-min Rain = 0
KMC1 151148Z 21003KT M03/M03 A3042 RMK A01 T10261033  RH  095%=      5-min Rain = 0
KMC1 151149Z 22003KT M03/M03 A3042 RMK A01 T10261033  RH  095%=      5-min Rain = 0
KMC1 151150Z 22003KT M03/M03 A3042 RMK A01 T10271034  RH  095%=      5-min Rain = 0
KMC1 151151Z 22003KT M03/M04 A3042 RMK A01 T10271035  RH  095%=      5-min Rain = 0
KMC1 151152Z 22003KT M03/M04 A3042 RMK A01 T10291037  RH  094%=      5-min Rain = 0
KMC1 151153Z 22003KT M03/M04 A3042 RMK A01 T10301039  RH  094%=      5-min Rain = 0
KMC1 151154Z 22003KT M03/M04 A3042 RMK A01 T10321042  RH  093%=      5-min Rain = 0
KMC1 151155Z 22003KT M03/M04 A3042 RMK A01 T10341044  RH  092%=      5-min Rain = 0
KMC1 151156Z 22003KT M04/M05 A3042 RMK A01 T10351046  RH  092%=      5-min Rain = 0
KMC1 151157Z 21003KT M04/M05 A3042 RMK A01 T10371047  RH  092%=      5-min Rain = 0
KMC1 151158Z 21003KT M04/M05 A3042 RMK A01 T10371048  RH  092%=      5-min Rain = 0
KMC1 151159Z 22003KT M04/M05 A3042 RMK A01 T10391049  RH  092%=      5-min Rain = 0
KMC1 151200Z 22003KT M04/M05 A3042 RMK A01 T10391050  RH  093%=      5-min Rain = 0
KMC1 151201Z 21003KT M04/M05 A3042 RMK A01 T10401050  RH  093%=      5-min Rain = 0
KMC1 151202Z 21003KT M04/M05 A3042 RMK A01 T10411050  RH  093%=      5-min Rain = 0
KMC1 151203Z 21003KT M04/M05 A3042 RMK A01 T10411051  RH  093%=      5-min Rain = 0
KMC1 151204Z 21003KT M04/M05 A3042 RMK A01 T10421051  RH  093%=      5-min Rain = 0
KMC1 151205Z 21004KT M04/M05 A3042 RMK A01 T10421051  RH  094%=      5-min Rain = 0
KMC1 151206Z 21004KT M04/M05 A3042 RMK A01 T10421051  RH  094%=      5-min Rain = 0
KMC1 151207Z 21004KT M04/M05 A3042 RMK A01 T10421050  RH  094%=      5-min Rain = 0
KMC1 151208Z 21004KT M04/M05 A3042 RMK A01 T10411049  RH  095%=      5-min Rain = 0
KMC1 151209Z 21004KT M04/M05 A3042 RMK A01 T10421049  RH  095%=      5-min Rain = 0
KMC1 151210Z 22004KT M04/M05 A3042 RMK A01 T10411048  RH  095%=      5-min Rain = 0
KMC1 151211Z 22004KT M04/M05 A3042 RMK A01 T10411048  RH  095%=      5-min Rain = 0
KMC1 151212Z 22004KT M04/M05 A3042 RMK A01 T10411047  RH  095%=      5-min Rain = 0
KMC1 151213Z 22004KT M04/M05 A3042 RMK A01 T10411047  RH  095%=      5-min Rain = 0
KMC1 151214Z 22004KT M04/M05 A3042 RMK A01 T10401046  RH  096%=      5-min Rain = 0
KMC1 151215Z 22004KT M04/M05 A3042 RMK A01 T10401046  RH  096%=      5-min Rain = 0
KMC1 151216Z 22004KT M04/M05 A3042 RMK A01 T10401045  RH  096%=      5-min Rain = 0
KMC1 151217Z 21004KT M04/M05 A3042 RMK A01 T10401045  RH  096%=      5-min Rain = 0
KMC1 151218Z 21003KT M04/M05 A3042 RMK A01 T10411047  RH  096%=      5-min Rain = 0
KMC1 151219Z 21003KT M04/M05 A3042 RMK A01 T10411048  RH  095%=      5-min Rain = 0
KMC1 151220Z 21003KT M04/M05 A3042 RMK A01 T10421048  RH  095%=      5-min Rain = 0
KMC1 151221Z 22003KT M04/M05 A3042 RMK A01 T10431050  RH  095%=      5-min Rain = 0
KMC1 151222Z 22003KT M04/M05 A3042 RMK A01 T10431051  RH  095%=      5-min Rain = 0
KMC1 151223Z 21004KT M04/M05 A3042 RMK A01 T10441051  RH  095%=      5-min Rain = 0
KMC1 151224Z 21004KT M04/M05 A3042 RMK A01 T10441051  RH  095%=      5-min Rain = 0
KMC1 151225Z 20004KT M04/M05 A3042 RMK A01 T10441051  RH  095%=      5-min Rain = 0
KMC1 151226Z 20004KT M04/M05 A3042 RMK A01 T10441051  RH  095%=      5-min Rain = 0
KMC1 151227Z 19004KT M04/M05 A3042 RMK A01 T10441050  RH  095%=      5-min Rain = 0
KMC1 151228Z 20004KT M04/M05 A3043 RMK A01 T10441049  RH  096%=      5-min Rain = 0
KMC1 151229Z 20004KT M04/M05 A3043 RMK A01 T10431049  RH  096%=      5-min Rain = 0
KMC1 151230Z 20004KT M04/M05 A3043 RMK A01 T10431048  RH  096%=      5-min Rain = 0
KMC1 151231Z 20004KT M04/M05 A3043 RMK A01 T10421047  RH  096%=      5-min Rain = 0
KMC1 151232Z 20004KT M04/M05 A3043 RMK A01 T10421047  RH  096%=      5-min Rain = 0
KMC1 151233Z 20004KT M04/M05 A3043 RMK A01 T10411046  RH  096%=      5-min Rain = 0
KMC1 151234Z 20004KT M04/M05 A3043 RMK A01 T10411046  RH  096%=      5-min Rain = 0
KMC1 151235Z 20004KT M04/M05 A3042 RMK A01 T10411046  RH  096%=      5-min Rain = 0
KMC1 151236Z 20004KT M04/M05 A3042 RMK A01 T10411046  RH  096%=      5-min Rain = 0
KMC1 151237Z 19004KT M04/M05 A3042 RMK A01 T10401045  RH  096%=      5-min Rain = 0
KMC1 151238Z 20004KT M04/M04 A3042 RMK A01 T10391044  RH  097%=      5-min Rain = 0
KMC1 151239Z 19004KT M04/M04 A3042 RMK A01 T10391043  RH  097%=      5-min Rain = 0
KMC1 151240Z 20004KT M04/M04 A3042 RMK A01 T10381043  RH  097%=      5-min Rain = 0
KMC1 151241Z 19004KT M04/M04 A3042 RMK A01 T10381043  RH  097%=      5-min Rain = 0
KMC1 151242Z 20003KT M04/M04 A3042 RMK A01 T10381043  RH  096%=      5-min Rain = 0
KMC1 151243Z 19004KT M04/M04 A3042 RMK A01 T10381043  RH  096%=      5-min Rain = 0
KMC1 151244Z 19004KT M04/M04 A3042 RMK A01 T10381043  RH  096%=      5-min Rain = 0
KMC1 151245Z 19004KT M04/M04 A3042 RMK A01 T10381043  RH  096%=      5-min Rain = 0
KMC1 151246Z 20003KT M04/M04 A3042 RMK A01 T10381043  RH  096%=      5-min Rain = 0
KMC1 151247Z 20004KT M04/M04 A3043 RMK A01 T10381043  RH  096%=      5-min Rain = 0
KMC1 151248Z 19004KT M04/M04 A3043 RMK A01 T10381044  RH  096%=      5-min Rain = 0
KMC1 151249Z 19004KT M04/M04 A3043 RMK A01 T10381044  RH  096%=      5-min Rain = 0
KMC1 151250Z 19004KT M04/M04 A3043 RMK A01 T10381044  RH  096%=      5-min Rain = 0
KMC1 151251Z 19004KT M04/M04 A3043 RMK A01 T10381043  RH  096%=      5-min Rain = 0
KMC1 151252Z 19004KT M04/M04 A3042 RMK A01 T10381043  RH  096%=      5-min Rain = 0
KMC1 151253Z 19004KT M04/M04 A3042 RMK A01 T10381043  RH  096%=      5-min Rain = 0
KMC1 151254Z 19005KT M04/M04 A3042 RMK A01 T10381043  RH  096%=      5-min Rain = 0
KMC1 151255Z 19005KT M04/M04 A3042 RMK A01 T10381043  RH  096%=      5-min Rain = 0
KMC1 151256Z 19005KT M04/M04 A3043 RMK A01 T10371042  RH  096%=      5-min Rain = 0
KMC1 151257Z 19004KT M04/M04 A3043 RMK A01 T10371042  RH  096%=      5-min Rain = 0
KMC1 151258Z 19004KT M04/M04 A3043 RMK A01 T10371042  RH  096%=      5-min Rain = 0
KMC1 151259Z 18004KT M04/M04 A3043 RMK A01 T10371042  RH  096%=      5-min Rain = 0
KMC1 151300Z 19004KT M04/M04 A3043 RMK A01 T10371042  RH  096%=      5-min Rain = 0
KMC1 151301Z 19004KT M04/M04 A3043 RMK A01 T10371042  RH  096%=      5-min Rain = 0
KMC1 151302Z 18004KT M04/M04 A3043 RMK A01 T10371042  RH  096%=      5-min Rain = 0
KMC1 151303Z 19004KT M04/M04 A3043 RMK A01 T10371042  RH  096%=      5-min Rain = 0
KMC1 151304Z 19004KT M04/M04 A3043 RMK A01 T10371043  RH  096%=      5-min Rain = 0
KMC1 151305Z 19003KT M04/M04 A3043 RMK A01 T10371043  RH  096%=      5-min Rain = 0
KMC1 151306Z 19003KT M04/M04 A3043 RMK A01 T10381043  RH  096%=      5-min Rain = 0
KMC1 151307Z 19003KT M04/M04 A3043 RMK A01 T10381044  RH  096%=      5-min Rain = 0
KMC1 151308Z 19003KT M04/M04 A3043 RMK A01 T10381044  RH  096%=      5-min Rain = 0
KMC1 151309Z 19003KT M04/M04 A3043 RMK A01 T10381044  RH  096%=      5-min Rain = 0
KMC1 151310Z 19003KT M04/M04 A3043 RMK A01 T10381043  RH  096%=      5-min Rain = 0
KMC1 151311Z 19003KT M04/M04 A3043 RMK A01 T10381043  RH  096%=      5-min Rain = 0
KMC1 151312Z 20003KT M04/M04 A3043 RMK A01 T10381043  RH  096%=      5-min Rain = 0
KMC1 151313Z 20003KT M04/M04 A3043 RMK A01 T10381043  RH  096%=      5-min Rain = 0
KMC1 151314Z 21003KT M04/M04 A3043 RMK A01 T10381043  RH  096%=      5-min Rain = 0
KMC1 151315Z 21003KT M04/M04 A3043 RMK A01 T10381044  RH  096%=      5-min Rain = 0
KMC1 151316Z 21003KT M04/M04 A3043 RMK A01 T10381044  RH  096%=      5-min Rain = 0
KMC1 151317Z 21003KT M04/M05 A3043 RMK A01 T10391045  RH  096%=      5-min Rain = 0
KMC1 151318Z 21002KT M04/M05 A3043 RMK A01 T10391045  RH  096%=      5-min Rain = 0
KMC1 151319Z 21002KT M04/M05 A3043 RMK A01 T10391045  RH  096%=      5-min Rain = 0
KMC1 151320Z 21003KT M04/M05 A3043 RMK A01 T10391045  RH  096%=      5-min Rain = 0
KMC1 151321Z 21002KT M04/M05 A3043 RMK A01 T10391045  RH  096%=      5-min Rain = 0
KMC1 151322Z 20002KT M04/M05 A3043 RMK A01 T10391045  RH  096%=      5-min Rain = 0
KMC1 151323Z 20002KT M04/M04 A3043 RMK A01 T10391044  RH  096%=      5-min Rain = 0
KMC1 151324Z 20002KT M04/M05 A3043 RMK A01 T10391045  RH  096%=      5-min Rain = 0
KMC1 151325Z 20002KT M04/M04 A3043 RMK A01 T10391044  RH  096%=      5-min Rain = 0
KMC1 151326Z 20002KT M04/M04 A3043 RMK A01 T10391044  RH  096%=      5-min Rain = 0
KMC1 151327Z 20001KT M04/M04 A3043 RMK A01 T10391044  RH  096%=      5-min Rain = 0
KMC1 151328Z 20002KT M04/M04 A3043 RMK A01 T10391044  RH  096%=      5-min Rain = 0
KMC1 151329Z 20002KT M04/M04 A3043 RMK A01 T10391044  RH  096%=      5-min Rain = 0
KMC1 151330Z 21002KT M04/M04 A3043 RMK A01 T10381043  RH  096%=      5-min Rain = 0
KMC1 151331Z 21002KT M04/M04 A3043 RMK A01 T10381043  RH  096%=      5-min Rain = 0
KMC1 151332Z 21002KT M04/M04 A3043 RMK A01 T10381043  RH  096%=      5-min Rain = 0
KMC1 151333Z 21002KT M04/M04 A3043 RMK A01 T10371042  RH  096%=      5-min Rain = 0
KMC1 151334Z 21001KT M04/M04 A3043 RMK A01 T10371042  RH  096%=      5-min Rain = 0
KMC1 151335Z 21002KT M04/M04 A3043 RMK A01 T10381043  RH  096%=      5-min Rain = 0
KMC1 151336Z 21001KT M04/M04 A3043 RMK A01 T10371042  RH  096%=      5-min Rain = 0
KMC1 151337Z 22001KT M04/M04 A3043 RMK A01 T10371042  RH  096%=      5-min Rain = 0
KMC1 151338Z 22001KT M04/M04 A3043 RMK A01 T10371042  RH  096%=      5-min Rain = 0
KMC1 151339Z 22001KT M04/M04 A3043 RMK A01 T10371042  RH  096%=      5-min Rain = 0
KMC1 151340Z 23001KT M04/M04 A3043 RMK A01 T10371043  RH  096%=      5-min Rain = 0
KMC1 151341Z 23001KT M04/M04 A3043 RMK A01 T10361043  RH  095%=      5-min Rain = 0
KMC1 151342Z 23001KT M04/M04 A3043 RMK A01 T10361043  RH  095%=      5-min Rain = 0
KMC1 151343Z 24001KT M04/M04 A3043 RMK A01 T10361044  RH  095%=      5-min Rain = 0
KMC1 151344Z 23001KT M04/M04 A3043 RMK A01 T10361044  RH  095%=      5-min Rain = 0
KMC1 151345Z 24001KT M04/M04 A3043 RMK A01 T10361044  RH  094%=      5-min Rain = 0
KMC1 151346Z 23001KT M04/M04 A3043 RMK A01 T10351044  RH  094%=      5-min Rain = 0
KMC1 151347Z 23001KT M04/M04 A3043 RMK A01 T10351044  RH  093%=      5-min Rain = 0
KMC1 151348Z 23001KT M04/M04 A3043 RMK A01 T10351044  RH  093%=      5-min Rain = 0
KMC1 151349Z 23001KT M03/M04 A3043 RMK A01 T10341043  RH  093%=      5-min Rain = 0
KMC1 151350Z 22001KT M03/M04 A3043 RMK A01 T10331043  RH  093%=      5-min Rain = 0
KMC1 151351Z 22001KT M03/M04 A3043 RMK A01 T10321042  RH  093%=      5-min Rain = 0
KMC1 151352Z 22001KT M03/M04 A3043 RMK A01 T10311042  RH  093%=      5-min Rain = 0
KMC1 151353Z 22001KT M03/M04 A3043 RMK A01 T10301041  RH  093%=      5-min Rain = 0
KMC1 151354Z 22001KT M03/M04 A3043 RMK A01 T10291039  RH  093%=      5-min Rain = 0
KMC1 151355Z 23001KT M03/M04 A3043 RMK A01 T10281039  RH  092%=      5-min Rain = 0
KMC1 151356Z 23001KT M03/M04 A3043 RMK A01 T10271038  RH  092%=      5-min Rain = 0
KMC1 151357Z 23001KT M03/M04 A3043 RMK A01 T10261037  RH  092%=      5-min Rain = 0
KMC1 151358Z 23001KT M03/M04 A3043 RMK A01 T10251037  RH  092%=      5-min Rain = 0
KMC1 151359Z 23000KT M02/M04 A3043 RMK A01 T10241036  RH  091%=      5-min Rain = 0
KMC1 151400Z 23000KT M02/M04 A3043 RMK A01 T10231035  RH  091%=      5-min Rain = 0
KMC1 151401Z 23000KT M02/M04 A3043 RMK A01 T10221035  RH  091%=      5-min Rain = 0
KMC1 151402Z 22000KT M02/M04 A3043 RMK A01 T10221035  RH  090%=      5-min Rain = 0
KMC1 151403Z 23001KT M02/M04 A3043 RMK A01 T10211035  RH  090%=      5-min Rain = 0
KMC1 151404Z 23001KT M02/M04 A3043 RMK A01 T10211036  RH  089%=      5-min Rain = 0
KMC1 151405Z 23001KT M02/M04 A3043 RMK A01 T10211038  RH  088%=      5-min Rain = 0
KMC1 151406Z 23000KT M02/M04 A3043 RMK A01 T10201038  RH  088%=      5-min Rain = 0
KMC1 151407Z 24001KT M02/M04 A3044 RMK A01 T10191036  RH  089%=      5-min Rain = 0
KMC1 151408Z 24001KT M02/M04 A3044 RMK A01 T10191037  RH  088%=      5-min Rain = 0
KMC1 151409Z 25001KT M02/M04 A3044 RMK A01 T10191037  RH  088%=      5-min Rain = 0
KMC1 151410Z 24001KT M02/M04 A3044 RMK A01 T10191037  RH  087%=      5-min Rain = 0
KMC1 151411Z 24001KT M02/M04 A3044 RMK A01 T10181036  RH  087%=      5-min Rain = 0
KMC1 151412Z 23001KT M02/M04 A3044 RMK A01 T10181037  RH  087%=      5-min Rain = 0
KMC1 151413Z 23001KT M02/M04 A3044 RMK A01 T10171036  RH  087%=      5-min Rain = 0
KMC1 151414Z 24001KT M02/M03 A3044 RMK A01 T10161034  RH  088%=      5-min Rain = 0
KMC1 151415Z 23001KT M02/M03 A3044 RMK A01 T10151032  RH  088%=      5-min Rain = 0
KMC1 151416Z 22001KT M01/M03 A3044 RMK A01 T10141032  RH  088%=      5-min Rain = 0
KMC1 151417Z 24001KT M01/M03 A3044 RMK A01 T10131031  RH  088%=      5-min Rain = 0
KMC1 151418Z 24001KT M01/M03 A3044 RMK A01 T10131031  RH  087%=      5-min Rain = 0
KMC1 151419Z 22001KT M01/M03 A3044 RMK A01 T10111030  RH  087%=      5-min Rain = 0
KMC1 151420Z 23000KT M01/M03 A3044 RMK A01 T10101028  RH  087%=      5-min Rain = 0
KMC1 151421Z 20000KT M01/M03 A3044 RMK A01 T10091027  RH  087%=      5-min Rain = 0
KMC1 151422Z 20001KT M01/M03 A3044 RMK A01 T10081026  RH  087%=      5-min Rain = 0
KMC1 151423Z 21000KT M01/M03 A3044 RMK A01 T10061025  RH  087%=      5-min Rain = 0
KMC1 151424Z 20000KT M01/M02 A3044 RMK A01 T10051024  RH  087%=      5-min Rain = 0
KMC1 151425Z 21000KT M00/M02 A3044 RMK A01 T10031022  RH  087%=      5-min Rain = 0
KMC1 151426Z 21000KT M00/M02 A3044 RMK A01 T10021021  RH  087%=      5-min Rain = 0
KMC1 151427Z 22000KT 00/02 A3044 RMK A01 T00000-19  RH  087%=      5-min Rain = 0
KMC1 151428Z 00000KT 00/M02 A3044 RMK A01 T00021016  RH  088%=      5-min Rain = 0
KMC1 151429Z 22000KT 00/M01 A3044 RMK A01 T00041014  RH  088%=      5-min Rain = 0
KMC1 151430Z 21000KT 01/M01 A3044 RMK A01 T00051014  RH  087%=      5-min Rain = 0
KMC1 151431Z 00000KT 01/M02 A3044 RMK A01 T00061016  RH  086%=      5-min Rain = 0
KMC1 151432Z 27001KT 01/M02 A3044 RMK A01 T00061017  RH  085%=      5-min Rain = 0
KMC1 151433Z 24001KT 01/M02 A3044 RMK A01 T00061018  RH  084%=      5-min Rain = 0
KMC1 151434Z 25001KT 01/M02 A3044 RMK A01 T00071017  RH  084%=      5-min Rain = 0
KMC1 151435Z 25001KT 01/M02 A3044 RMK A01 T00081017  RH  084%=      5-min Rain = 0
KMC1 151436Z 24001KT 01/M02 A3044 RMK A01 T00081017  RH  083%=      5-min Rain = 0
KMC1 151437Z 24001KT 01/M02 A3044 RMK A01 T00091017  RH  083%=      5-min Rain = 0
KMC1 151438Z 25000KT 01/M02 A3044 RMK A01 T00101016  RH  083%=      5-min Rain = 0
KMC1 151439Z 23001KT 01/M02 A3044 RMK A01 T00121015  RH  083%=      5-min Rain = 0
KMC1 151440Z 25001KT 01/M02 A3044 RMK A01 T00121015  RH  082%=      5-min Rain = 0
KMC1 151441Z 24000KT 01/M01 A3044 RMK A01 T00141014  RH  082%=      5-min Rain = 0
KMC1 151442Z 25000KT 02/M01 A3044 RMK A01 T00151012  RH  082%=      5-min Rain = 0
KMC1 151443Z 24001KT 02/M01 A3044 RMK A01 T00161010  RH  083%=      5-min Rain = 0
KMC1 151444Z 26001KT 02/M01 A3044 RMK A01 T00181010  RH  082%=      5-min Rain = 0
KMC1 151445Z 26001KT 02/M01 A3044 RMK A01 T00181011  RH  081%=      5-min Rain = 0
KMC1 151446Z 27001KT 02/M01 A3044 RMK A01 T00201008  RH  082%=      5-min Rain = 0
KMC1 151447Z 27001KT 02/M01 A3044 RMK A01 T00211008  RH  081%=      5-min Rain = 0
KMC1 151448Z 27001KT 02/M01 A3044 RMK A01 T00221008  RH  081%=      5-min Rain = 0
KMC1 151449Z 27001KT 02/M01 A3044 RMK A01 T00221009  RH  080%=      5-min Rain = 0
KMC1 151450Z 27001KT 02/M01 A3044 RMK A01 T00231010  RH  079%=      5-min Rain = 0
KMC1 151451Z 26001KT 02/M01 A3044 RMK A01 T00231010  RH  079%=      5-min Rain = 0
KMC1 151452Z 27001KT 02/M01 A3044 RMK A01 T00241009  RH  079%=      5-min Rain = 0
KMC1 151453Z 26001KT 02/M01 A3044 RMK A01 T00241010  RH  078%=      5-min Rain = 0
KMC1 151454Z 26001KT 03/M01 A3044 RMK A01 T00251007  RH  079%=      5-min Rain = 0
KMC1 151455Z 25001KT 03/M01 A3045 RMK A01 T00271006  RH  079%=      5-min Rain = 0
KMC1 151456Z 27001KT 03/M01 A3045 RMK A01 T00281006  RH  079%=      5-min Rain = 0
KMC1 151457Z 25001KT 03/M00 A3045 RMK A01 T00291004  RH  079%=      5-min Rain = 0
KMC1 151458Z 26001KT 03/M00 A3045 RMK A01 T00301003  RH  078%=      5-min Rain = 0
KMC1 151459Z 27001KT 03/M00 A3045 RMK A01 T00311004  RH  078%=      5-min Rain = 0
KMC1 151500Z 27001KT 03/M00 A3045 RMK A01 T00331001  RH  079%=      5-min Rain = 0
KMC1 151501Z 27001KT 03/M00 A3045 RMK A01 T00341001  RH  078%=      5-min Rain = 0
KMC1 151502Z 27002KT 04/M00 A3045 RMK A01 T00351003  RH  076%=      5-min Rain = 0
KMC1 151503Z 26002KT 04/M00 A3045 RMK A01 T00351004  RH  076%=      5-min Rain = 0
KMC1 151504Z 26002KT 04/M00 A3045 RMK A01 T00361004  RH  075%=      5-min Rain = 0
KMC1 151505Z 26002KT 04/M01 A3045 RMK A01 T00361005  RH  074%=      5-min Rain = 0
KMC1 151506Z 26001KT 04/M00 A3045 RMK A01 T00371002  RH  076%=      5-min Rain = 0
KMC1 151507Z 30001KT 04/00 A3045 RMK A01 T00390002  RH  077%=      5-min Rain = 0
KMC1 151508Z 29002KT 04/00 A3045 RMK A01 T00400001  RH  075%=      5-min Rain = 0
KMC1 151509Z 31001KT 04/M00 A3045 RMK A01 T00411001  RH  074%=      5-min Rain = 0
KMC1 151510Z 29002KT 04/M00 A3045 RMK A01 T00411003  RH  073%=      5-min Rain = 0
KMC1 151511Z 29002KT 04/M00 A3045 RMK A01 T00421002  RH  073%=      5-min Rain = 0
KMC1 151512Z 28001KT 04/M00 A3045 RMK A01 T00421001  RH  073%=      5-min Rain = 0
KMC1 151513Z 28001KT 04/00 A3045 RMK A01 T00430002  RH  075%=      5-min Rain = 0
KMC1 151514Z 29001KT 04/00 A3045 RMK A01 T00440002  RH  074%=      5-min Rain = 0
KMC1 151515Z 30001KT 05/00 A3045 RMK A01 T00450002  RH  074%=      5-min Rain = 0
KMC1 151516Z 32001KT 05/00 A3045 RMK A01 T00470004  RH  074%=      5-min Rain = 0
KMC1 151517Z 28001KT 05/00 A3045 RMK A01 T00480004  RH  073%=      5-min Rain = 0
KMC1 151518Z 28002KT 05/00 A3045 RMK A01 T00480003  RH  073%=      5-min Rain = 0
KMC1 151519Z 30001KT 05/00 A3045 RMK A01 T00490002  RH  072%=      5-min Rain = 0
KMC1 151520Z 30001KT 05/00 A3045 RMK A01 T00490001  RH  071%=      5-min Rain = 0
KMC1 151521Z 32001KT 05/00 A3045 RMK A01 T00490002  RH  071%=      5-min Rain = 0
KMC1 151522Z 29000KT 05/01 A3045 RMK A01 T00500006  RH  073%=      5-min Rain = 0
KMC1 151523Z 31000KT 05/01 A3045 RMK A01 T00520010  RH  074%=      5-min Rain = 0
KMC1 151524Z 00000KT 05/01 A3045 RMK A01 T00530007  RH  072%=      5-min Rain = 0
KMC1 151525Z 35000KT 06/01 A3045 RMK A01 T00560010  RH  072%=      5-min Rain = 0
KMC1 151526Z 36001KT 06/02 A3045 RMK A01 T00600016  RH  073%=      5-min Rain = 0
KMC1 151527Z 02002KT 06/01 A3045 RMK A01 T00620013  RH  071%=      5-min Rain = 0
KMC1 151528Z 02002KT 06/01 A3045 RMK A01 T00620009  RH  069%=      5-min Rain = 0
KMC1 151529Z 01002KT 06/01 A3045 RMK A01 T00630011  RH  069%=      5-min Rain = 0
KMC1 151530Z 01003KT 06/01 A3045 RMK A01 T00630009  RH  068%=      5-min Rain = 0
KMC1 151531Z 01003KT 06/01 A3045 RMK A01 T00620007  RH  068%=      5-min Rain = 0
KMC1 151532Z 02002KT 06/01 A3045 RMK A01 T00630009  RH  068%=      5-min Rain = 0
KMC1 151533Z 02002KT 06/01 A3045 RMK A01 T00640006  RH  066%=      5-min Rain = 0
KMC1 151534Z 02002KT 07/01 A3045 RMK A01 T00650006  RH  066%=      5-min Rain = 0
KMC1 151535Z 35001KT 07/01 A3045 RMK A01 T00660009  RH  067%=      5-min Rain = 0
KMC1 151536Z 35002KT 07/01 A3045 RMK A01 T00670009  RH  066%=      5-min Rain = 0
KMC1 151537Z 35002KT 07/01 A3045 RMK A01 T00680006  RH  064%=      5-min Rain = 0
KMC1 151538Z 36002KT 07/01 A3045 RMK A01 T00690007  RH  064%=      5-min Rain = 0
KMC1 151539Z 02002KT 07/01 A3045 RMK A01 T00710008  RH  065%=      5-min Rain = 0
KMC1 151540Z 02003KT 07/01 A3045 RMK A01 T00730009  RH  064%=      5-min Rain = 0
KMC1 151541Z 03003KT 07/01 A3045 RMK A01 T00740006  RH  062%=      5-min Rain = 0
KMC1 151542Z 03003KT 07/01 A3045 RMK A01 T00730005  RH  062%=      5-min Rain = 0
KMC1 151543Z 04002KT 07/00 A3045 RMK A01 T00740004  RH  061%=      5-min Rain = 0
KMC1 151544Z 02001KT 08/00 A3045 RMK A01 T00760002  RH  059%=      5-min Rain = 0
KMC1 151545Z 01001KT 08/00 A3045 RMK A01 T00770002  RH  059%=      5-min Rain = 0
KMC1 151546Z 35001KT 08/00 A3045 RMK A01 T00790003  RH  059%=      5-min Rain = 0
KMC1 151547Z 36003KT 08/00 A3045 RMK A01 T00800003  RH  058%=      5-min Rain = 0
KMC1 151548Z 02003KT 08/01 A3045 RMK A01 T00800005  RH  059%=      5-min Rain = 0
KMC1 151549Z 02002KT 08/00 A3045 RMK A01 T00810004  RH  058%=      5-min Rain = 0
KMC1 151550Z 00003KT 08/01 A3045 RMK A01 T00810005  RH  059%=      5-min Rain = 0
KMC1 151551Z 04004KT 08/01 A3045 RMK A01 T00820007  RH  059%=      5-min Rain = 0
KMC1 151552Z 05003KT 08/01 A3045 RMK A01 T00840005  RH  057%=      5-min Rain = 0
KMC1 151553Z 04002KT 08/00 A3045 RMK A01 T00840001  RH  056%=      5-min Rain = 0
KMC1 151554Z 03003KT 08/00 A3045 RMK A01 T00840003  RH  057%=      5-min Rain = 0
KMC1 151555Z 03002KT 08/00 A3045 RMK A01 T00840001  RH  056%=      5-min Rain = 0
KMC1 151556Z 02002KT 09/00 A3045 RMK A01 T00850002  RH  056%=      5-min Rain = 0
KMC1 151557Z 05002KT 09/00 A3045 RMK A01 T00860002  RH  056%=      5-min Rain = 0
KMC1 151558Z 04002KT 09/00 A3045 RMK A01 T00880000  RH  054%=      5-min Rain = 0
KMC1 151559Z 05002KT 09/00 A3045 RMK A01 T00900001  RH  054%=      5-min Rain = 0
KMC1 151600Z 06004KT 09/00 A3045 RMK A01 T00920003  RH  054%=      5-min Rain = 0
KMC1 151601Z 05001KT 09/00 A3045 RMK A01 T00940004  RH  053%=      5-min Rain = 0
KMC1 151602Z 07002KT 10/00 A3045 RMK A01 T00960003  RH  052%=      5-min Rain = 0
KMC1 151603Z 03003KT 10/00 A3045 RMK A01 T00950002  RH  052%=      5-min Rain = 0
KMC1 151604Z 03004KT 10/01 A3045 RMK A01 T00960005  RH  053%=      5-min Rain = 0
KMC1 151605Z 05003KT 10/00 A3045 RMK A01 T00970002  RH  051%=      5-min Rain = 0
KMC1 151606Z 06002KT 10/00 A3045 RMK A01 T00970003  RH  052%=      5-min Rain = 0
KMC1 151607Z 04004KT 10/00 A3044 RMK A01 T00970003  RH  052%=      5-min Rain = 0
KMC1 151608Z 04005KT 10/00 A3044 RMK A01 T00980000  RH  051%=      5-min Rain = 0
KMC1 151609Z 05004KT 10/M00 A3044 RMK A01 T00981001  RH  050%=      5-min Rain = 0
KMC1 151610Z 09003KT 10/00 A3044 RMK A01 T00980004  RH  052%=      5-min Rain = 0
KMC1 151611Z 07002KT 10/00 A3044 RMK A01 T01000003  RH  051%=      5-min Rain = 0
KMC1 151612Z 05004KT 10/00 A3044 RMK A01 T01020001  RH  050%=      5-min Rain = 0
KMC1 151613Z 03005KT 10/M01 A3044 RMK A01 T01021005  RH  048%=      5-min Rain = 0
KMC1 151614Z 04003KT 10/M00 A3044 RMK A01 T01001001  RH  049%=      5-min Rain = 0
KMC1 151615Z 05001KT 10/00 A3044 RMK A01 T01010001  RH  050%=      5-min Rain = 0
KMC1 151616Z 05004KT 10/00 A3044 RMK A01 T01040003  RH  050%=      5-min Rain = 0
KMC1 151617Z 03005KT 10/M00 A3044 RMK A01 T01041001  RH  048%=      5-min Rain = 0
KMC1 151618Z 03003KT 10/M00 A3044 RMK A01 T01031004  RH  047%=      5-min Rain = 0
KMC1 151619Z 06005KT 10/M00 A3044 RMK A01 T01021002  RH  048%=      5-min Rain = 0
KMC1 151620Z 07004KT 10/M00 A3044 RMK A01 T01031001  RH  048%=      5-min Rain = 0
KMC1 151621Z 08004KT 10/M00 A3044 RMK A01 T01041003  RH  048%=      5-min Rain = 0
KMC1 151622Z 07005KT 10/M00 A3044 RMK A01 T01031001  RH  048%=      5-min Rain = 0
KMC1 151623Z 07003KT 10/M00 A3044 RMK A01 T01031002  RH  048%=      5-min Rain = 0
KMC1 151624Z 06002KT 10/M00 A3044 RMK A01 T01031003  RH  048%=      5-min Rain = 0
KMC1 151625Z 04004KT 10/M00 A3044 RMK A01 T01021003  RH  048%=      5-min Rain = 0
KMC1 151626Z 03005KT 10/M00 A3044 RMK A01 T01021004  RH  048%=      5-min Rain = 0
KMC1 151627Z 03005KT 10/M00 A3044 RMK A01 T01021002  RH  049%=      5-min Rain = 0
KMC1 151628Z 04006KT 10/M00 A3044 RMK A01 T01021001  RH  049%=      5-min Rain = 0
KMC1 151629Z 05004KT 10/M00 A3044 RMK A01 T01031002  RH  048%=      5-min Rain = 0
KMC1 151630Z 08005KT 10/M00 A3044 RMK A01 T01041001  RH  048%=      5-min Rain = 0
KMC1 151631Z 08002KT 11/M00 A3044 RMK A01 T01051002  RH  048%=      5-min Rain = 0
KMC1 151632Z 06001KT 11/00 A3044 RMK A01 T01050000  RH  048%=      5-min Rain = 0
KMC1 151633Z 05003KT 11/00 A3044 RMK A01 T01080001  RH  048%=      5-min Rain = 0
KMC1 151634Z 03003KT 11/M00 A3044 RMK A01 T01081002  RH  046%=      5-min Rain = 0
KMC1 151635Z 07004KT 11/M00 A3044 RMK A01 T01061004  RH  047%=      5-min Rain = 0
KMC1 151636Z 06004KT 11/00 A3043 RMK A01 T01060001  RH  048%=      5-min Rain = 0
KMC1 151637Z 07002KT 11/00 A3043 RMK A01 T01090003  RH  048%=      5-min Rain = 0
KMC1 151638Z 08001KT 11/01 A3043 RMK A01 T01130005  RH  047%=      5-min Rain = 0
KMC1 151639Z 09003KT 11/00 A3043 RMK A01 T011400-0  RH  046%=      5-min Rain = 0
KMC1 151640Z 08001KT 11/M01 A3043 RMK A01 T01121005  RH  044%=      5-min Rain = 0
KMC1 151641Z 08003KT 11/M01 A3043 RMK A01 T01091005  RH  045%=      5-min Rain = 0
KMC1 151642Z 12003KT 11/M00 A3043 RMK A01 T01091001  RH  047%=      5-min Rain = 0
KMC1 151643Z 05004KT 11/00 A3043 RMK A01 T011100-0  RH  046%=      5-min Rain = 0
KMC1 151644Z 05005KT 11/M00 A3043 RMK A01 T01121001  RH  046%=      5-min Rain = 0
KMC1 151645Z 05004KT 11/M00 A3043 RMK A01 T01101003  RH  046%=      5-min Rain = 0
KMC1 151646Z 06004KT 11/M00 A3043 RMK A01 T01091003  RH  046%=      5-min Rain = 0
KMC1 151647Z 06002KT 11/M01 A3043 RMK A01 T01081005  RH  046%=      5-min Rain = 0
KMC1 151648Z 12001KT 11/M00 A3043 RMK A01 T01071004  RH  046%=      5-min Rain = 0
KMC1 151649Z 08003KT 11/M00 A3043 RMK A01 T01061002  RH  047%=      5-min Rain = 0
KMC1 151650Z 07003KT 11/00 A3043 RMK A01 T01080001  RH  048%=      5-min Rain = 0
KMC1 151651Z 04003KT 11/00 A3043 RMK A01 T01110004  RH  048%=      5-min Rain = 0
KMC1 151652Z 06003KT 11/00 A3043 RMK A01 T01130001  RH  046%=      5-min Rain = 0
KMC1 151653Z 02002KT 11/M00 A3043 RMK A01 T01131002  RH  045%=      5-min Rain = 0
KMC1 151654Z 04003KT 11/M00 A3043 RMK A01 T01121002  RH  045%=      5-min Rain = 0
KMC1 151655Z 06002KT 11/M00 A3043 RMK A01 T01101003  RH  046%=      5-min Rain = 0
KMC1 151656Z 34002KT 11/00 A3043 RMK A01 T011000-0  RH  046%=      5-min Rain = 0
KMC1 151657Z 02002KT 11/M00 A3043 RMK A01 T01101001  RH  046%=      5-min Rain = 0
KMC1 151658Z 13001KT 11/00 A3043 RMK A01 T011200-0  RH  046%=      5-min Rain = 0
KMC1 151659Z 10002KT 11/00 A3043 RMK A01 T01140003  RH  047%=      5-min Rain = 0
KMC1 151700Z 07002KT 12/00 A3043 RMK A01 T01160003  RH  046%=      5-min Rain = 0
KMC1 151701Z 10002KT 12/00 A3043 RMK A01 T01170002  RH  045%=      5-min Rain = 0
KMC1 151702Z 09004KT 12/00 A3043 RMK A01 T01180001  RH  044%=      5-min Rain = 0
KMC1 151703Z 10004KT 12/00 A3043 RMK A01 T01180000  RH  044%=      5-min Rain = 0
KMC1 151704Z 08003KT 12/00 A3043 RMK A01 T011800-0  RH  044%=      5-min Rain = 0
KMC1 151705Z 08002KT 12/M00 A3043 RMK A01 T01181001  RH  044%=      5-min Rain = 0
KMC1 151706Z 06003KT 12/M00 A3043 RMK A01 T01171002  RH  044%=      5-min Rain = 0
KMC1 151707Z 05002KT 12/M00 A3043 RMK A01 T01171002  RH  044%=      5-min Rain = 0
KMC1 151708Z 00001KT 12/M01 A3043 RMK A01 T01151005  RH  043%=      5-min Rain = 0
KMC1 151709Z 30001KT 11/M00 A3043 RMK A01 T01141004  RH  044%=      5-min Rain = 0
KMC1 151710Z 28002KT 11/M00 A3043 RMK A01 T01141004  RH  044%=      5-min Rain = 0
KMC1 151711Z 29003KT 11/M01 A3043 RMK A01 T01141005  RH  044%=      5-min Rain = 0
KMC1 151712Z 28001KT 11/M00 A3043 RMK A01 T01131003  RH  045%=      5-min Rain = 0
KMC1 151713Z 25002KT 12/M00 A3043 RMK A01 T01151002  RH  045%=      5-min Rain = 0
KMC1 151714Z 28001KT 12/M00 A3043 RMK A01 T01161002  RH  044%=      5-min Rain = 0
KMC1 151715Z 27001KT 12/M00 A3043 RMK A01 T01171003  RH  044%=      5-min Rain = 0
KMC1 151716Z 13000KT 12/M00 A3043 RMK A01 T01171002  RH  044%=      5-min Rain = 0
KMC1 151717Z 15001KT 12/M00 A3042 RMK A01 T01191002  RH  043%=      5-min Rain = 0
KMC1 151718Z 06002KT 12/M00 A3042 RMK A01 T01191002  RH  043%=      5-min Rain = 0
KMC1 151719Z 05002KT 12/00 A3042 RMK A01 T01210002  RH  044%=      5-min Rain = 0
KMC1 151720Z 06002KT 12/00 A3042 RMK A01 T01230000  RH  043%=      5-min Rain = 0
KMC1 151721Z 05002KT 12/M00 A3042 RMK A01 T01201002  RH  043%=      5-min Rain = 0
KMC1 151722Z 07003KT 12/00 A3042 RMK A01 T01200000  RH  044%=      5-min Rain = 0
KMC1 151723Z 04002KT 12/M00 A3042 RMK A01 T01201001  RH  043%=      5-min Rain = 0
KMC1 151724Z 07002KT 12/M00 A3042 RMK A01 T01201002  RH  043%=      5-min Rain = 0
KMC1 151725Z 12001KT 12/M00 A3042 RMK A01 T01191001  RH  043%=      5-min Rain = 0
KMC1 151726Z 16002KT 12/M00 A3042 RMK A01 T01191001  RH  043%=      5-min Rain = 0
KMC1 151727Z 22001KT 12/00 A3042 RMK A01 T01210000  RH  043%=      5-min Rain = 0
KMC1 151728Z 03001KT 12/00 A3042 RMK A01 T01230002  RH  043%=      5-min Rain = 0
KMC1 151729Z 35002KT 13/00 A3041 RMK A01 T01250001  RH  042%=      5-min Rain = 0
KMC1 151730Z 35001KT 13/M00 A3041 RMK A01 T01251002  RH  042%=      5-min Rain = 0
KMC1 151731Z 03001KT 12/00 A3041 RMK A01 T012400-0  RH  042%=      5-min Rain = 0
KMC1 151732Z 08002KT 13/00 A3041 RMK A01 T01250001  RH  042%=      5-min Rain = 0
KMC1 151733Z 04001KT 13/00 A3041 RMK A01 T01270002  RH  042%=      5-min Rain = 0
KMC1 151734Z 22001KT 13/M00 A3041 RMK A01 T01281001  RH  041%=      5-min Rain = 0
KMC1 151735Z 17002KT 13/M00 A3041 RMK A01 T01291001  RH  041%=      5-min Rain = 0
KMC1 151736Z 19001KT 13/M00 A3041 RMK A01 T01301002  RH  040%=      5-min Rain = 0
KMC1 151737Z 17001KT 13/M00 A3041 RMK A01 T01281003  RH  040%=      5-min Rain = 0
KMC1 151738Z 12001KT 13/M00 A3041 RMK A01 T01271004  RH  040%=      5-min Rain = 0
KMC1 151739Z 11002KT 13/M00 A3041 RMK A01 T01271004  RH  040%=      5-min Rain = 0
KMC1 151740Z 15001KT 13/00 A3041 RMK A01 T01280001  RH  042%=      5-min Rain = 0
KMC1 151741Z 21003KT 13/00 A3041 RMK A01 T01310001  RH  041%=      5-min Rain = 0
KMC1 151742Z 23002KT 13/M00 A3041 RMK A01 T01311004  RH  039%=      5-min Rain = 0
KMC1 151743Z 26001KT 13/M01 A3041 RMK A01 T01281005  RH  040%=      5-min Rain = 0
KMC1 151744Z 26002KT 13/M00 A3041 RMK A01 T01261004  RH  040%=      5-min Rain = 0
KMC1 151745Z 25002KT 13/M00 A3041 RMK A01 T01261004  RH  041%=      5-min Rain = 0
KMC1 151746Z 25002KT 13/M00 A3041 RMK A01 T01251004  RH  041%=      5-min Rain = 0
KMC1 151747Z 24002KT 13/M00 A3041 RMK A01 T01261003  RH  041%=      5-min Rain = 0
KMC1 151748Z 19003KT 13/M01 A3041 RMK A01 T01261005  RH  040%=      5-min Rain = 0
KMC1 151749Z 20002KT 13/M00 A3041 RMK A01 T01271004  RH  041%=      5-min Rain = 0
KMC1 151750Z 21002KT 13/M00 A3041 RMK A01 T01301002  RH  040%=      5-min Rain = 0
KMC1 151751Z 18004KT 13/M00 A3041 RMK A01 T01311001  RH  040%=      5-min Rain = 0
KMC1 151752Z 13003KT 13/00 A3041 RMK A01 T01330001  RH  040%=      5-min Rain = 0
KMC1 151753Z 14002KT 14/M00 A3041 RMK A01 T01351002  RH  039%=      5-min Rain = 0
KMC1 151754Z 13003KT 13/M01 A3041 RMK A01 T01341005  RH  038%=      5-min Rain = 0
KMC1 151755Z 12001KT 13/M01 A304 RMK A01 T01331009  RH  037%=      5-min Rain = 0
KMC1 151756Z 25000KT 13/M02 A304 RMK A01 T01331015  RH  036%=      5-min Rain = 0
KMC1 151757Z 26001KT 13/M02 A304 RMK A01 T01321015  RH  036%=      5-min Rain = 0
KMC1 151758Z 25004KT 13/M01 A304 RMK A01 T01321011  RH  037%=      5-min Rain = 0
KMC1 151759Z 24004KT 13/M01 A304 RMK A01 T01321011  RH  037%=      5-min Rain = 0
KMC1 151800Z 26002KT 13/M01 A304 RMK A01 T01321011  RH  037%=      5-min Rain = 0
KMC1 151801Z 26002KT 13/M01 A304 RMK A01 T01311012  RH  037%=      5-min Rain = 0
KMC1 151802Z 27001KT 13/M01 A304 RMK A01 T01311006  RH  039%=      5-min Rain = 0
KMC1 151803Z 11003KT 13/M01 A304 RMK A01 T01341008  RH  038%=      5-min Rain = 0
KMC1 151804Z 10002KT 14/M00 A304 RMK A01 T01361004  RH  038%=      5-min Rain = 0
KMC1 151805Z 06004KT 14/M00 A304 RMK A01 T01391003  RH  038%=      5-min Rain = 0
KMC1 151806Z 09002KT 14/M01 A304 RMK A01 T01401005  RH  037%=      5-min Rain = 0
KMC1 151807Z 14001KT 14/M01 A304 RMK A01 T01391008  RH  036%=      5-min Rain = 0
KMC1 151808Z 15002KT 14/M01 A304 RMK A01 T01391005  RH  037%=      5-min Rain = 0
KMC1 151809Z 08001KT 14/00 A304 RMK A01 T014300-0  RH  037%=      5-min Rain = 0
KMC1 151810Z 15001KT 15/M01 A304 RMK A01 T01451006  RH  036%=      5-min Rain = 0
KMC1 151811Z 15002KT 15/M00 A304 RMK A01 T01461003  RH  036%=      5-min Rain = 0
KMC1 151812Z 10003KT 15/M00 A304 RMK A01 T01481001  RH  036%=      5-min Rain = 0
KMC1 151813Z 14003KT 15/M01 A304 RMK A01 T01491008  RH  034%=      5-min Rain = 0
KMC1 151814Z 12001KT 15/M01 A304 RMK A01 T01461012  RH  034%=      5-min Rain = 0
KMC1 151815Z 24001KT 14/M01 A3039 RMK A01 T01431012  RH  034%=      5-min Rain = 0
KMC1 151816Z 20001KT 14/M01 A3039 RMK A01 T01421010  RH  035%=      5-min Rain = 0
KMC1 151817Z 20000KT 14/M01 A3039 RMK A01 T01421010  RH  035%=      5-min Rain = 0
KMC1 151818Z 15003KT 14/M01 A3039 RMK A01 T01431006  RH  036%=      5-min Rain = 0
KMC1 151819Z 15003KT 15/M01 A3039 RMK A01 T01451006  RH  036%=      5-min Rain = 0
KMC1 151820Z 14003KT 15/M01 A3039 RMK A01 T01471006  RH  035%=      5-min Rain = 0
KMC1 151821Z 11003KT 15/M01 A3039 RMK A01 T01481009  RH  034%=      5-min Rain = 0
KMC1 151822Z 11004KT 15/M01 A3039 RMK A01 T01461010  RH  034%=      5-min Rain = 0
KMC1 151823Z 12003KT 15/M01 A3039 RMK A01 T01451011  RH  034%=      5-min Rain = 0
KMC1 151824Z 11004KT 14/M01 A3039 RMK A01 T01441012  RH  034%=      5-min Rain = 0
KMC1 151825Z 13002KT 14/M01 A3039 RMK A01 T01411011  RH  035%=      5-min Rain = 0
KMC1 151826Z 10001KT 14/M01 A3039 RMK A01 T01411012  RH  035%=      5-min Rain = 0
KMC1 151827Z 33002KT 14/M01 A3039 RMK A01 T01421010  RH  035%=      5-min Rain = 0
KMC1 151828Z 36002KT 14/M01 A3038 RMK A01 T01421012  RH  035%=      5-min Rain = 0
KMC1 151829Z 36001KT 14/M01 A3038 RMK A01 T01411012  RH  035%=      5-min Rain = 0
KMC1 151830Z 35001KT 14/M01 A3038 RMK A01 T01401010  RH  036%=      5-min Rain = 0
KMC1 151831Z 01003KT 14/M01 A3038 RMK A01 T01431007  RH  036%=      5-min Rain = 0
KMC1 151832Z 01003KT 14/M01 A3038 RMK A01 T01441012  RH  034%=      5-min Rain = 0
KMC1 151833Z 00003KT 14/M01 A3038 RMK A01 T01411014  RH  034%=      5-min Rain = 0
KMC1 151834Z 01003KT 14/M01 A3038 RMK A01 T01391013  RH  035%=      5-min Rain = 0
KMC1 151835Z 36003KT 14/M01 A3038 RMK A01 T01391010  RH  036%=      5-min Rain = 0
KMC1 151836Z 35002KT 14/M01 A3038 RMK A01 T01411008  RH  036%=      5-min Rain = 0
KMC1 151837Z 01002KT 14/M01 A3038 RMK A01 T01421011  RH  035%=      5-min Rain = 0
KMC1 151838Z 35003KT 14/M01 A3037 RMK A01 T01411011  RH  035%=      5-min Rain = 0
KMC1 151839Z 31004KT 14/M01 A3037 RMK A01 T01421006  RH  036%=      5-min Rain = 0
KMC1 151840Z 32003KT 15/M01 A3037 RMK A01 T01451007  RH  035%=      5-min Rain = 0
KMC1 151841Z 31002KT 15/M01 A3037 RMK A01 T01451010  RH  034%=      5-min Rain = 0
KMC1 151842Z 30004KT 15/M01 A3037 RMK A01 T01451005  RH  036%=      5-min Rain = 0
KMC1 151843Z 30005KT 15/M01 A3037 RMK A01 T01471007  RH  035%=      5-min Rain = 0
KMC1 151844Z 28004KT 15/M01 A3037 RMK A01 T01471011  RH  034%=      5-min Rain = 0
KMC1 151845Z 29003KT 15/M01 A3037 RMK A01 T01481012  RH  033%=      5-min Rain = 0
KMC1 151846Z 30003KT 15/M01 A3037 RMK A01 T01461011  RH  034%=      5-min Rain = 0
KMC1 151847Z 29002KT 15/M01 A3037 RMK A01 T01461010  RH  034%=      5-min Rain = 0
KMC1 151848Z 30002KT 15/M01 A3037 RMK A01 T01461011  RH  034%=      5-min Rain = 0
KMC1 151849Z 27003KT 15/M01 A3037 RMK A01 T01461010  RH  034%=      5-min Rain = 0
KMC1 151850Z 28003KT 15/M01 A3037 RMK A01 T01461008  RH  035%=      5-min Rain = 0
KMC1 151851Z 29001KT 15/M01 A3037 RMK A01 T01461010  RH  034%=      5-min Rain = 0
KMC1 151852Z 30001KT 15/M01 A3037 RMK A01 T01471010  RH  034%=      5-min Rain = 0
KMC1 151853Z 30002KT 15/M01 A3037 RMK A01 T01471006  RH  035%=      5-min Rain = 0
KMC1 151854Z 33002KT 15/M01 A3037 RMK A01 T01491011  RH  033%=      5-min Rain = 0
KMC1 151855Z 35000KT 15/M01 A3036 RMK A01 T01471013  RH  033%=      5-min Rain = 0
KMC1 151856Z 15000KT 15/M01 A3036 RMK A01 T01461010  RH  034%=      5-min Rain = 0
KMC1 151857Z 15000KT 15/M01 A3036 RMK A01 T01471010  RH  034%=      5-min Rain = 0
KMC1 151858Z 17002KT 15/M01 A3036 RMK A01 T01481008  RH  034%=      5-min Rain = 0
KMC1 151859Z 18003KT 15/M00 A3036 RMK A01 T01511002  RH  035%=      5-min Rain = 0
KMC1 151900Z 19003KT 16/M01 A3036 RMK A01 T01551005  RH  034%=      5-min Rain = 0
KMC1 151901Z 19002KT 16/M01 A3036 RMK A01 T01571005  RH  033%=      5-min Rain = 0
KMC1 151902Z 18003KT 16/M01 A3036 RMK A01 T01581007  RH  032%=      5-min Rain = 0
KMC1 151903Z 21003KT 16/M01 A3036 RMK A01 T01591006  RH  032%=      5-min Rain = 0
KMC1 151904Z 23003KT 16/M01 A3036 RMK A01 T01591008  RH  032%=      5-min Rain = 0
KMC1 151905Z 20004KT 16/M01 A3036 RMK A01 T01591007  RH  032%=      5-min Rain = 0
KMC1 151906Z 20004KT 16/M01 A3036 RMK A01 T01581010  RH  032%=      5-min Rain = 0
KMC1 151907Z 22003KT 16/M01 A3035 RMK A01 T01551010  RH  032%=      5-min Rain = 0
KMC1 151908Z 22003KT 15/M01 A3035 RMK A01 T01541009  RH  033%=      5-min Rain = 0
KMC1 151909Z 22002KT 15/M01 A3035 RMK A01 T01521012  RH  032%=      5-min Rain = 0
KMC1 151910Z 22000KT 15/M01 A3035 RMK A01 T01491013  RH  033%=      5-min Rain = 0
KMC1 151911Z 03001KT 15/M01 A3035 RMK A01 T01481011  RH  033%=      5-min Rain = 0
KMC1 151912Z 00001KT 15/M01 A3035 RMK A01 T01491010  RH  034%=      5-min Rain = 0
KMC1 151913Z 02001KT 15/M01 A3035 RMK A01 T01491008  RH  034%=      5-min Rain = 0
KMC1 151914Z 35001KT 15/M01 A3035 RMK A01 T01511008  RH  034%=      5-min Rain = 0
KMC1 151915Z 34000KT 15/M01 A3035 RMK A01 T01531007  RH  033%=      5-min Rain = 0
KMC1 151916Z 26003KT 15/M01 A3035 RMK A01 T01541006  RH  033%=      5-min Rain = 0
KMC1 151917Z 24003KT 16/M01 A3035 RMK A01 T01561008  RH  033%=      5-min Rain = 0
KMC1 151918Z 26002KT 16/M01 A3034 RMK A01 T01571007  RH  033%=      5-min Rain = 0
KMC1 151919Z 21003KT 16/M01 A3034 RMK A01 T01591005  RH  033%=      5-min Rain = 0
KMC1 151920Z 24004KT 16/M01 A3034 RMK A01 T01591008  RH  032%=      5-min Rain = 0
KMC1 151921Z 25004KT 16/M01 A3034 RMK A01 T01591008  RH  032%=      5-min Rain = 0
KMC1 151922Z 25004KT 16/M01 A3034 RMK A01 T01591010  RH  031%=      5-min Rain = 0
KMC1 151923Z 24003KT 16/M01 A3034 RMK A01 T01591013  RH  031%=      5-min Rain = 0
KMC1 151924Z 23004KT 16/M01 A3034 RMK A01 T01571009  RH  032%=      5-min Rain = 0
KMC1 151925Z 24004KT 16/M01 A3034 RMK A01 T01581012  RH  031%=      5-min Rain = 0
KMC1 151926Z 27004KT 16/M02 A3034 RMK A01 T01571015  RH  031%=      5-min Rain = 0
KMC1 151927Z 26003KT 16/M02 A3034 RMK A01 T01561015  RH  031%=      5-min Rain = 0
KMC1 151928Z 28002KT 16/M02 A3034 RMK A01 T01561018  RH  030%=      5-min Rain = 0
KMC1 151929Z 27004KT 16/M02 A3034 RMK A01 T01551019  RH  030%=      5-min Rain = 0
KMC1 151930Z 26003KT 15/M02 A3034 RMK A01 T01541020  RH  030%=      5-min Rain = 0
KMC1 151931Z 26003KT 15/M01 A3033 RMK A01 T01531014  RH  032%=      5-min Rain = 0
KMC1 151932Z 26004KT 16/M01 A3033 RMK A01 T01571011  RH  032%=      5-min Rain = 0
KMC1 151933Z 27004KT 16/M01 A3033 RMK A01 T01601013  RH  031%=      5-min Rain = 0
KMC1 151934Z 25003KT 16/M02 A3033 RMK A01 T01611018  RH  029%=      5-min Rain = 0
KMC1 151935Z 24001KT 16/M02 A3033 RMK A01 T01601017  RH  030%=      5-min Rain = 0
KMC1 151936Z 28004KT 16/M02 A3033 RMK A01 T01601018  RH  030%=      5-min Rain = 0
KMC1 151937Z 29003KT 16/M02 A3033 RMK A01 T01601020  RH  029%=      5-min Rain = 0
KMC1 151938Z 33001KT 16/M02 A3033 RMK A01 T01581021  RH  029%=      5-min Rain = 0
KMC1 151939Z 32001KT 16/M02 A3033 RMK A01 T01571020  RH  030%=      5-min Rain = 0
KMC1 151940Z 29005KT 16/M02 A3033 RMK A01 T01581021  RH  029%=      5-min Rain = 0
KMC1 151941Z 30004KT 16/M02 A3033 RMK A01 T01591019  RH  029%=      5-min Rain = 0
KMC1 151942Z 29003KT 16/M02 A3033 RMK A01 T01601022  RH  029%=      5-min Rain = 0
KMC1 151943Z 29003KT 16/M02 A3033 RMK A01 T01591021  RH  029%=      5-min Rain = 0
KMC1 151944Z 28002KT 16/M02 A3033 RMK A01 T01591023  RH  029%=      5-min Rain = 0
KMC1 151945Z 26001KT 16/M02 A3033 RMK A01 T01591024  RH  028%=      5-min Rain = 0
KMC1 151946Z 28003KT 16/M02 A3033 RMK A01 T01591021  RH  029%=      5-min Rain = 0
KMC1 151947Z 31001KT 16/M02 A3032 RMK A01 T01611018  RH  029%=      5-min Rain = 0
KMC1 151948Z 30001KT 16/M02 A3032 RMK A01 T01631017  RH  029%=      5-min Rain = 0
KMC1 151949Z 28002KT 17/M02 A3032 RMK A01 T01651017  RH  029%=      5-min Rain = 0
KMC1 151950Z 23001KT 17/M02 A3032 RMK A01 T01661018  RH  028%=      5-min Rain = 0
KMC1 151951Z 19001KT 17/M02 A3032 RMK A01 T01681017  RH  028%=      5-min Rain = 0
KMC1 151952Z 27001KT 17/M02 A3032 RMK A01 T01711021  RH  027%=      5-min Rain = 0
KMC1 151953Z 25001KT 17/M02 A3032 RMK A01 T01701024  RH  027%=      5-min Rain = 0
KMC1 151954Z 23000KT 17/M02 A3032 RMK A01 T01691020  RH  028%=      5-min Rain = 0
KMC1 151955Z 27002KT 17/M02 A3032 RMK A01 T01701018  RH  028%=      5-min Rain = 0
KMC1 151956Z 28002KT 17/M02 A3032 RMK A01 T01701016  RH  028%=      5-min Rain = 0
KMC1 151957Z 22003KT 17/M02 A3032 RMK A01 T01701016  RH  028%=      5-min Rain = 0
KMC1 151958Z 23003KT 17/M02 A3032 RMK A01 T01701015  RH  028%=      5-min Rain = 0
KMC1 151959Z 24002KT 17/M01 A3032 RMK A01 T01711011  RH  029%=      5-min Rain = 0
KMC1 152000Z 03000KT 17/M02 A3032 RMK A01 T01721017  RH  028%=      5-min Rain = 0
KMC1 152001Z 26000KT 17/M02 A3032 RMK A01 T01691017  RH  028%=      5-min Rain = 0
KMC1 152002Z 26001KT 17/M02 A3031 RMK A01 T01681016  RH  028%=      5-min Rain = 0
KMC1 152003Z 17001KT 17/M02 A3031 RMK A01 T01681017  RH  028%=      5-min Rain = 0
KMC1 152004Z 25002KT 17/M01 A3031 RMK A01 T01691011  RH  029%=      5-min Rain = 0
KMC1 152005Z 24004KT 17/M01 A3031 RMK A01 T01711013  RH  028%=      5-min Rain = 0
KMC1 152006Z 26003KT 17/M02 A3031 RMK A01 T01691018  RH  028%=      5-min Rain = 0
KMC1 152007Z 28002KT 17/M02 A3031 RMK A01 T01651018  RH  029%=      5-min Rain = 0
KMC1 152008Z 19003KT 16/M02 A3031 RMK A01 T01641017  RH  029%=      5-min Rain = 0
KMC1 152009Z 15003KT 16/M02 A3031 RMK A01 T01641015  RH  029%=      5-min Rain = 0
KMC1 152010Z 17002KT 17/M02 A3031 RMK A01 T01651016  RH  029%=      5-min Rain = 0
KMC1 152011Z 19002KT 17/M01 A3031 RMK A01 T01661014  RH  029%=      5-min Rain = 0
KMC1 152012Z 16004KT 17/M01 A3031 RMK A01 T01671011  RH  030%=      5-min Rain = 0
KMC1 152013Z 17006KT 17/M01 A3031 RMK A01 T01691014  RH  029%=      5-min Rain = 0
KMC1 152014Z 17004KT 17/M01 A3031 RMK A01 T01691013  RH  029%=      5-min Rain = 0
KMC1 152015Z 15001KT 17/M01 A3031 RMK A01 T01701013  RH  029%=      5-min Rain = 0
KMC1 152016Z 18001KT 17/M01 A3031 RMK A01 T01701014  RH  028%=      5-min Rain = 0
KMC1 152017Z 11001KT 17/M01 A3031 RMK A01 T01711014  RH  028%=      5-min Rain = 0
KMC1 152018Z 12001KT 17/M02 A3031 RMK A01 T01721015  RH  028%=      5-min Rain = 0
KMC1 152019Z 05002KT 17/M02 A3031 RMK A01 T01701017  RH  028%=      5-min Rain = 0
KMC1 152020Z 09003KT 17/M02 A3031 RMK A01 T01671016  RH  028%=      5-min Rain = 0
KMC1 152021Z 06001KT 17/M02 A3031 RMK A01 T01651016  RH  029%=      5-min Rain = 0
KMC1 152022Z 06003KT 16/M02 A3031 RMK A01 T01641015  RH  030%=      5-min Rain = 0
KMC1 152023Z 05002KT 16/M01 A3031 RMK A01 T01641012  RH  030%=      5-min Rain = 0
KMC1 152024Z 04002KT 17/M01 A3031 RMK A01 T01671010  RH  030%=      5-min Rain = 0
KMC1 152025Z 04002KT 17/M01 A3031 RMK A01 T01691013  RH  029%=      5-min Rain = 0
KMC1 152026Z 20001KT 17/M01 A3031 RMK A01 T01681014  RH  029%=      5-min Rain = 0
KMC1 152027Z 22002KT 17/M01 A3031 RMK A01 T01681014  RH  029%=      5-min Rain = 0
KMC1 152028Z 20002KT 17/M02 A3031 RMK A01 T01691015  RH  028%=      5-min Rain = 0
KMC1 152029Z 15001KT 17/M01 A3031 RMK A01 T01701008  RH  030%=      5-min Rain = 0
KMC1 152030Z 17000KT 17/M01 A303 RMK A01 T01731012  RH  028%=      5-min Rain = 0
KMC1 152031Z 16002KT 18/M01 A303 RMK A01 T01751010  RH  028%=      5-min Rain = 0
KMC1 152032Z 13001KT 18/M01 A303 RMK A01 T01751014  RH  027%=      5-min Rain = 0
KMC1 152033Z 10001KT 17/M01 A303 RMK A01 T01741012  RH  028%=      5-min Rain = 0
KMC1 152034Z 01002KT 17/M01 A303 RMK A01 T01741012  RH  028%=      5-min Rain = 0
KMC1 152035Z 01000KT 17/M01 A303 RMK A01 T01741014  RH  028%=      5-min Rain = 0
KMC1 152036Z 01001KT 17/M01 A303 RMK A01 T01731012  RH  028%=      5-min Rain = 0
KMC1 152037Z 01002KT 17/M01 A303 RMK A01 T01731011  RH  028%=      5-min Rain = 0
KMC1 152038Z 07001KT 17/M01 A303 RMK A01 T01731010  RH  029%=      5-min Rain = 0
KMC1 152039Z 07000KT 18/M01 A303 RMK A01 T01751009  RH  029%=      5-min Rain = 0
KMC1 152040Z 07002KT 18/M01 A303 RMK A01 T01761008  RH  029%=      5-min Rain = 0
KMC1 152041Z 05001KT 18/M01 A303 RMK A01 T01781012  RH  028%=      5-min Rain = 0
KMC1 152042Z 03001KT 18/M01 A303 RMK A01 T01751014  RH  028%=      5-min Rain = 0
KMC1 152043Z 06002KT 17/M01 A303 RMK A01 T01741012  RH  028%=      5-min Rain = 0
KMC1 152044Z 06001KT 17/M01 A303 RMK A01 T01741011  RH  028%=      5-min Rain = 0
KMC1 152045Z 01001KT 17/M01 A303 RMK A01 T01741013  RH  028%=      5-min Rain = 0
KMC1 152046Z 01001KT 17/M01 A303 RMK A01 T01741011  RH  028%=      5-min Rain = 0
KMC1 152047Z 01001KT 17/M02 A303 RMK A01 T01731015  RH  028%=      5-min Rain = 0
KMC1 152048Z 07000KT 17/M01 A303 RMK A01 T01721013  RH  028%=      5-min Rain = 0
KMC1 152049Z 09002KT 17/M01 A303 RMK A01 T01731014  RH  028%=      5-min Rain = 0
KMC1 152050Z 07002KT 18/M01 A303 RMK A01 T01751014  RH  028%=      5-min Rain = 0
KMC1 152051Z 15002KT 18/M02 A303 RMK A01 T01771016  RH  027%=      5-min Rain = 0
KMC1 152052Z 14003KT 18/M01 A303 RMK A01 T01791014  RH  027%=      5-min Rain = 0
KMC1 152053Z 17003KT 18/M02 A303 RMK A01 T01791015  RH  027%=      5-min Rain = 0
KMC1 152054Z 17004KT 18/M02 A303 RMK A01 T01791016  RH  026%=      5-min Rain = 0
KMC1 152055Z 18005KT 18/M02 A303 RMK A01 T01801015  RH  027%=      5-min Rain = 0
KMC1 152056Z 18005KT 18/M02 A303 RMK A01 T01801021  RH  026%=      5-min Rain = 0
KMC1 152057Z 16005KT 18/M03 A303 RMK A01 T01771025  RH  025%=      5-min Rain = 0
KMC1 152058Z 14004KT 18/M02 A303 RMK A01 T01761024  RH  025%=      5-min Rain = 0
KMC1 152059Z 16005KT 18/M02 A303 RMK A01 T01761023  RH  026%=      5-min Rain = 0
KMC1 152100Z 18004KT 18/M02 A303 RMK A01 T01761019  RH  026%=      5-min Rain = 0
KMC1 152101Z 17002KT 18/M02 A303 RMK A01 T01781018  RH  026%=      5-min Rain = 0
KMC1 152102Z 16004KT 18/M01 A303 RMK A01 T01811014  RH  027%=      5-min Rain = 0
KMC1 152103Z 15004KT 18/M02 A303 RMK A01 T01821018  RH  026%=      5-min Rain = 0
KMC1 152104Z 12004KT 18/M02 A303 RMK A01 T01821018  RH  026%=      5-min Rain = 0
KMC1 152105Z 12005KT 18/M02 A303 RMK A01 T01821020  RH  025%=      5-min Rain = 0
KMC1 152106Z 11004KT 18/M02 A3029 RMK A01 T01791021  RH  025%=      5-min Rain = 0
KMC1 152107Z 17005KT 18/M02 A3029 RMK A01 T01761023  RH  026%=      5-min Rain = 0
KMC1 152108Z 16002KT 17/M03 A303 RMK A01 T01741027  RH  025%=      5-min Rain = 0
KMC1 152109Z 15000KT 17/M03 A303 RMK A01 T01731027  RH  025%=      5-min Rain = 0
KMC1 152110Z 17001KT 17/M03 A3029 RMK A01 T01731026  RH  026%=      5-min Rain = 0
KMC1 152111Z 22003KT 18/M02 A3029 RMK A01 T01751023  RH  026%=      5-min Rain = 0
KMC1 152112Z 22002KT 18/M02 A3029 RMK A01 T01761023  RH  026%=      5-min Rain = 0
KMC1 152113Z 22002KT 18/M02 A3029 RMK A01 T01761022  RH  026%=      5-min Rain = 0
KMC1 152114Z 23002KT 18/M02 A3029 RMK A01 T01771020  RH  026%=      5-min Rain = 0
KMC1 152115Z 24002KT 18/M02 A3029 RMK A01 T01781019  RH  026%=      5-min Rain = 0
KMC1 152116Z 19000KT 18/M02 A3029 RMK A01 T01791015  RH  027%=      5-min Rain = 0
KMC1 152117Z 23001KT 18/M02 A3029 RMK A01 T01821015  RH  026%=      5-min Rain = 0
KMC1 152118Z 29001KT 18/M01 A3029 RMK A01 T01831014  RH  026%=      5-min Rain = 0
KMC1 152119Z 30002KT 18/M01 A3029 RMK A01 T01831014  RH  026%=      5-min Rain = 0
KMC1 152120Z 29001KT 18/M02 A3029 RMK A01 T01831017  RH  026%=      5-min Rain = 0
KMC1 152121Z 26001KT 18/M01 A3029 RMK A01 T01811011  RH  027%=      5-min Rain = 0
KMC1 152122Z 24002KT 18/M01 A3029 RMK A01 T01811011  RH  027%=      5-min Rain = 0
KMC1 152123Z 23002KT 18/M02 A3029 RMK A01 T01821015  RH  026%=      5-min Rain = 0
KMC1 152124Z 27002KT 18/M01 A3029 RMK A01 T01821011  RH  027%=      5-min Rain = 0
KMC1 152125Z 26002KT 18/M02 A3029 RMK A01 T01831015  RH  026%=      5-min Rain = 0
KMC1 152126Z 24001KT 18/M01 A3029 RMK A01 T01831011  RH  027%=      5-min Rain = 0
KMC1 152127Z 25001KT 18/M02 A3029 RMK A01 T01831015  RH  026%=      5-min Rain = 0
KMC1 152128Z 23002KT 18/M02 A3029 RMK A01 T01821017  RH  026%=      5-min Rain = 0
KMC1 152129Z 18000KT 18/M02 A3029 RMK A01 T01801019  RH  026%=      5-min Rain = 0
KMC1 152130Z 18001KT 18/M02 A3029 RMK A01 T01791017  RH  026%=      5-min Rain = 0
KMC1 152131Z 13003KT 18/M01 A3029 RMK A01 T01791012  RH  027%=      5-min Rain = 0
KMC1 152132Z 15004KT 18/M01 A3029 RMK A01 T01811014  RH  027%=      5-min Rain = 0
KMC1 152133Z 17003KT 18/M02 A3029 RMK A01 T01811015  RH  026%=      5-min Rain = 0
KMC1 152134Z 16001KT 18/M01 A3029 RMK A01 T01811014  RH  026%=      5-min Rain = 0
KMC1 152135Z 19001KT 18/M02 A3029 RMK A01 T01811018  RH  026%=      5-min Rain = 0
KMC1 152136Z 15003KT 18/M02 A3029 RMK A01 T01811017  RH  026%=      5-min Rain = 0
KMC1 152137Z 14004KT 18/M02 A3029 RMK A01 T01801017  RH  026%=      5-min Rain = 0
KMC1 152138Z 14004KT 18/M02 A3029 RMK A01 T01801019  RH  026%=      5-min Rain = 0
KMC1 152139Z 12003KT 18/M02 A3029 RMK A01 T01801020  RH  026%=      5-min Rain = 0
KMC1 152140Z 11004KT 18/M02 A3029 RMK A01 T01791019  RH  026%=      5-min Rain = 0
KMC1 152141Z 10003KT 18/M02 A3029 RMK A01 T01781019  RH  026%=      5-min Rain = 0
KMC1 152142Z 10003KT 18/M02 A3029 RMK A01 T01781017  RH  027%=      5-min Rain = 0
KMC1 152143Z 11003KT 18/M02 A3029 RMK A01 T01771021  RH  026%=      5-min Rain = 0
KMC1 152144Z 12002KT 18/M02 A3029 RMK A01 T01761020  RH  026%=      5-min Rain = 0
KMC1 152145Z 14003KT 18/M02 A3029 RMK A01 T01761017  RH  027%=      5-min Rain = 0
KMC1 152146Z 16004KT 18/M02 A3029 RMK A01 T01761017  RH  027%=      5-min Rain = 0
KMC1 152147Z 20002KT 18/M01 A3029 RMK A01 T01771014  RH  027%=      5-min Rain = 0
KMC1 152148Z 21003KT 18/M01 A3029 RMK A01 T01791014  RH  027%=      5-min Rain = 0
KMC1 152149Z 22001KT 18/M02 A3029 RMK A01 T01791018  RH  026%=      5-min Rain = 0
KMC1 152150Z 31001KT 18/M02 A3029 RMK A01 T01791018  RH  026%=      5-min Rain = 0
KMC1 152151Z 33001KT 18/M02 A3029 RMK A01 T01801018  RH  026%=      5-min Rain = 0
KMC1 152152Z 32001KT 18/M02 A3029 RMK A01 T01801016  RH  027%=      5-min Rain = 0
KMC1 152153Z 34000KT 18/M02 A3029 RMK A01 T01801017  RH  026%=      5-min Rain = 0
KMC1 152154Z 12001KT 18/M01 A3029 RMK A01 T01801014  RH  027%=      5-min Rain = 0
KMC1 152155Z 12004KT 18/M02 A3029 RMK A01 T01811019  RH  026%=      5-min Rain = 0
KMC1 152156Z 11004KT 18/M02 A3029 RMK A01 T01801018  RH  026%=      5-min Rain = 0
KMC1 152157Z 06001KT 18/M02 A3029 RMK A01 T01791019  RH  026%=      5-min Rain = 0
KMC1 152158Z 04002KT 18/M02 A3029 RMK A01 T01771021  RH  026%=      5-min Rain = 0
KMC1 152159Z 11002KT 18/M02 A3029 RMK A01 T01761020  RH  026%=      5-min Rain = 0
KMC1 152200Z 16004KT 18/M02 A3028 RMK A01 T01771017  RH  027%=      5-min Rain = 0
KMC1 152201Z 14005KT 18/M01 A3028 RMK A01 T01791013  RH  027%=      5-min Rain = 0
KMC1 152202Z 12004KT 18/M01 A3029 RMK A01 T01801012  RH  027%=      5-min Rain = 0
KMC1 152203Z 11004KT 18/M02 A3029 RMK A01 T01781018  RH  026%=      5-min Rain = 0
KMC1 152204Z 12003KT 18/M02 A3028 RMK A01 T01761016  RH  027%=      5-min Rain = 0
KMC1 152205Z 12003KT 18/M02 A3028 RMK A01 T01761016  RH  027%=      5-min Rain = 0
KMC1 152206Z 10003KT 18/M02 A3028 RMK A01 T01751017  RH  027%=      5-min Rain = 0
KMC1 152207Z 12006KT 18/M01 A3028 RMK A01 T01751014  RH  028%=      5-min Rain = 0
KMC1 152208Z 14005KT 18/M01 A3028 RMK A01 T01751013  RH  028%=      5-min Rain = 0
KMC1 152209Z 18004KT 18/M01 A3028 RMK A01 T01751011  RH  028%=      5-min Rain = 0
KMC1 152210Z 17002KT 18/M01 A3028 RMK A01 T01771013  RH  027%=      5-min Rain = 0
KMC1 152211Z 15002KT 18/M01 A3028 RMK A01 T01771012  RH  028%=      5-min Rain = 0
KMC1 152212Z 14003KT 18/M01 A3028 RMK A01 T01781014  RH  027%=      5-min Rain = 0
KMC1 152213Z 14002KT 18/M02 A3028 RMK A01 T01781017  RH  027%=      5-min Rain = 0
KMC1 152214Z 16001KT 18/M02 A3028 RMK A01 T01761019  RH  026%=      5-min Rain = 0
KMC1 152215Z 18000KT 18/M02 A3028 RMK A01 T01751017  RH  027%=      5-min Rain = 0
KMC1 152216Z 19002KT 18/M02 A3028 RMK A01 T01761017  RH  027%=      5-min Rain = 0
KMC1 152217Z 23002KT 18/M02 A3028 RMK A01 T01771015  RH  027%=      5-min Rain = 0
KMC1 152218Z 23001KT 18/M01 A3028 RMK A01 T01791012  RH  027%=      5-min Rain = 0
KMC1 152219Z 16001KT 18/M02 A3028 RMK A01 T01801015  RH  027%=      5-min Rain = 0
KMC1 152220Z 14003G8KT 18/M01 A3028 RMK A01 T01811012  RH  027%=      5-min Rain = 0
KMC1 152221Z 19002KT 18/M01 A3028 RMK A01 T01811013  RH  027%=      5-min Rain = 0
KMC1 152222Z 14002KT 18/M01 A3028 RMK A01 T01811013  RH  027%=      5-min Rain = 0
KMC1 152223Z 14004KT 18/M01 A3028 RMK A01 T01801013  RH  027%=      5-min Rain = 0
KMC1 152224Z 14004KT 18/M01 A3028 RMK A01 T01781013  RH  027%=      5-min Rain = 0
KMC1 152225Z 15004KT 18/M01 A3028 RMK A01 T01771013  RH  027%=      5-min Rain = 0
KMC1 152226Z 15005KT 18/M01 A3028 RMK A01 T01761013  RH  028%=      5-min Rain = 0
KMC1 152227Z 17005KT 18/M01 A3028 RMK A01 T01761013  RH  028%=      5-min Rain = 0
KMC1 152228Z 18003KT 18/M01 A3028 RMK A01 T01761013  RH  028%=      5-min Rain = 0
KMC1 152229Z 14004KT 18/M01 A3028 RMK A01 T01761013  RH  028%=      5-min Rain = 0
KMC1 152230Z 16002KT 18/M01 A3028 RMK A01 T01761014  RH  027%=      5-min Rain = 0
KMC1 152231Z 17004KT 18/M01 A3028 RMK A01 T01761012  RH  028%=      5-min Rain = 0
KMC1 152232Z 15002KT 18/M01 A3028 RMK A01 T01761013  RH  028%=      5-min Rain = 0
KMC1 152233Z 13002KT 18/M01 A3028 RMK A01 T01751012  RH  028%=      5-min Rain = 0
KMC1 152234Z 13003KT 18/M01 A3028 RMK A01 T01751012  RH  028%=      5-min Rain = 0
KMC1 152235Z 14005KT 17/M01 A3028 RMK A01 T01741010  RH  029%=      5-min Rain = 0
KMC1 152236Z 15006KT 17/M01 A3028 RMK A01 T01741011  RH  028%=      5-min Rain = 0
KMC1 152237Z 15003KT 17/M01 A3028 RMK A01 T01731010  RH  029%=      5-min Rain = 0
KMC1 152238Z 15005KT 17/M01 A3028 RMK A01 T01731010  RH  029%=      5-min Rain = 0
KMC1 152239Z 15004KT 17/M01 A3028 RMK A01 T01731011  RH  029%=      5-min Rain = 0
KMC1 152240Z 14004KT 17/M01 A3028 RMK A01 T01731012  RH  028%=      5-min Rain = 0
KMC1 152241Z 14004KT 17/M01 A3028 RMK A01 T01731011  RH  029%=      5-min Rain = 0
KMC1 152242Z 12001KT 17/M01 A3028 RMK A01 T01731014  RH  028%=      5-min Rain = 0
KMC1 152243Z 11003KT 17/M01 A3028 RMK A01 T01721014  RH  028%=      5-min Rain = 0
KMC1 152244Z 11004KT 17/M01 A3028 RMK A01 T01711011  RH  029%=      5-min Rain = 0
KMC1 152245Z 11005KT 17/M01 A3028 RMK A01 T01711011  RH  029%=      5-min Rain = 0
KMC1 152246Z 11004KT 17/M01 A3027 RMK A01 T01701011  RH  029%=      5-min Rain = 0
KMC1 152247Z 11006KT 17/M01 A3027 RMK A01 T01701012  RH  029%=      5-min Rain = 0
KMC1 152248Z 10004KT 17/M01 A3027 RMK A01 T01691014  RH  029%=      5-min Rain = 0
KMC1 152249Z 11005KT 17/M01 A3027 RMK A01 T01681013  RH  029%=      5-min Rain = 0
KMC1 152250Z 12005KT 17/M01 A3027 RMK A01 T01681014  RH  029%=      5-min Rain = 0
KMC1 152251Z 11004KT 17/M01 A3027 RMK A01 T01671012  RH  029%=      5-min Rain = 0
KMC1 152252Z 10005KT 17/M01 A3027 RMK A01 T01671010  RH  030%=      5-min Rain = 0
KMC1 152253Z 10004KT 17/M01 A3027 RMK A01 T01671009  RH  030%=      5-min Rain = 0
KMC1 152254Z 10003KT 17/M01 A3027 RMK A01 T01671008  RH  030%=      5-min Rain = 0
KMC1 152255Z 13006KT 17/M01 A3027 RMK A01 T01671007  RH  031%=      5-min Rain = 0
KMC1 152256Z 14004KT 17/M01 A3027 RMK A01 T01661010  RH  030%=      5-min Rain = 0
KMC1 152257Z 13005KT 17/M01 A3027 RMK A01 T01661008  RH  031%=      5-min Rain = 0
KMC1 152258Z 12005KT 17/M01 A3027 RMK A01 T01651010  RH  030%=      5-min Rain = 0
KMC1 152259Z 13006KT 16/M01 A3027 RMK A01 T01641011  RH  030%=      5-min Rain = 0
KMC1 152300Z 14005KT 16/M01 A3027 RMK A01 T01631011  RH  030%=      5-min Rain = 0
KMC1 152301Z 15003KT 16/M01 A3027 RMK A01 T01631008  RH  031%=      5-min Rain = 0
KMC1 152302Z 14002KT 16/M01 A3027 RMK A01 T01631008  RH  031%=      5-min Rain = 0
KMC1 152303Z 14002KT 16/M01 A3027 RMK A01 T01631007  RH  031%=      5-min Rain = 0
KMC1 152304Z 13003KT 16/M01 A3027 RMK A01 T01631008  RH  031%=      5-min Rain = 0
KMC1 152305Z 13004KT 16/M01 A3027 RMK A01 T01631008  RH  031%=      5-min Rain = 0
KMC1 152306Z 14004KT 16/M01 A3027 RMK A01 T01621009  RH  031%=      5-min Rain = 0
KMC1 152307Z 14003KT 16/M01 A3027 RMK A01 T01611008  RH  031%=      5-min Rain = 0
KMC1 152308Z 13004KT 16/M01 A3027 RMK A01 T01611007  RH  032%=      5-min Rain = 0
KMC1 152309Z 13003KT 16/M01 A3027 RMK A01 T01601006  RH  032%=      5-min Rain = 0
KMC1 152310Z 14005KT 16/M01 A3027 RMK A01 T01591006  RH  032%=      5-min Rain = 0
KMC1 152311Z 13005KT 16/M01 A3027 RMK A01 T01591006  RH  032%=      5-min Rain = 0
KMC1 152312Z 14004KT 16/M01 A3027 RMK A01 T01581006  RH  033%=      5-min Rain = 0
KMC1 152313Z 13005KT 16/M01 A3027 RMK A01 T01571005  RH  033%=      5-min Rain = 0
KMC1 152314Z 13006KT 16/M01 A3027 RMK A01 T01561006  RH  033%=      5-min Rain = 0
KMC1 152315Z 13005KT 16/M01 A3027 RMK A01 T01561006  RH  033%=      5-min Rain = 0
KMC1 152316Z 12004KT 16/M01 A3027 RMK A01 T01551007  RH  033%=      5-min Rain = 0
KMC1 152317Z 13005KT 15/M01 A3027 RMK A01 T01541005  RH  034%=      5-min Rain = 0
KMC1 152318Z 13005KT 15/M01 A3027 RMK A01 T01531006  RH  034%=      5-min Rain = 0
KMC1 152319Z 13005KT 15/M01 A3027 RMK A01 T01531006  RH  034%=      5-min Rain = 0
KMC1 152320Z 13004KT 15/M01 A3027 RMK A01 T01521007  RH  034%=      5-min Rain = 0
KMC1 152321Z 13004KT 15/M01 A3027 RMK A01 T01511007  RH  034%=      5-min Rain = 0
KMC1 152322Z 13004KT 15/M01 A3027 RMK A01 T01511007  RH  034%=      5-min Rain = 0
KMC1 152323Z 13004KT 15/M01 A3027 RMK A01 T01501006  RH  034%=      5-min Rain = 0
KMC1 152324Z 13004KT 15/M01 A3027 RMK A01 T01491007  RH  034%=      5-min Rain = 0
KMC1 152325Z 13004KT 15/M01 A3027 RMK A01 T01481006  RH  035%=      5-min Rain = 0
KMC1 152326Z 13004KT 15/M01 A3027 RMK A01 T01471007  RH  035%=      5-min Rain = 0
KMC1 152327Z 13004KT 15/M01 A3027 RMK A01 T01461007  RH  035%=      5-min Rain = 0
KMC1 152328Z 13004KT 15/M01 A3027 RMK A01 T01461006  RH  035%=      5-min Rain = 0
KMC1 152329Z 13004KT 15/M01 A3027 RMK A01 T01451006  RH  036%=      5-min Rain = 0
KMC1 152330Z 13003KT 14/M01 A3027 RMK A01 T01431005  RH  036%=      5-min Rain = 0
KMC1 152331Z 13004KT 14/M01 A3027 RMK A01 T01421005  RH  036%=      5-min Rain = 0
KMC1 152332Z 13004KT 14/M01 A3027 RMK A01 T01421005  RH  037%=      5-min Rain = 0
KMC1 152333Z 13004KT 14/M00 A3027 RMK A01 T01411004  RH  037%=      5-min Rain = 0
KMC1 152334Z 14004KT 14/M00 A3027 RMK A01 T01391004  RH  037%=      5-min Rain = 0
KMC1 152335Z 14004KT 14/M00 A3027 RMK A01 T01391003  RH  038%=      5-min Rain = 0
KMC1 152336Z 14004KT 14/M00 A3027 RMK A01 T01371003  RH  038%=      5-min Rain = 0
KMC1 152337Z 14004KT 14/M00 A3027 RMK A01 T01361003  RH  038%=      5-min Rain = 0
KMC1 152338Z 14004KT 14/M00 A3027 RMK A01 T01351004  RH  038%=      5-min Rain = 0
KMC1 152339Z 14004KT 14/M00 A3027 RMK A01 T01351004  RH  039%=      5-min Rain = 0
KMC1 152340Z 14004KT 13/M00 A3027 RMK A01 T01341004  RH  039%=      5-min Rain = 0
KMC1 152341Z 14004KT 13/M00 A3027 RMK A01 T01331004  RH  039%=      5-min Rain = 0
KMC1 152342Z 14004KT 13/M00 A3027 RMK A01 T01321004  RH  039%=      5-min Rain = 0
KMC1 152343Z 14004KT 13/M00 A3027 RMK A01 T01311004  RH  039%=      5-min Rain = 0
KMC1 152344Z 14004KT 13/M00 A3027 RMK A01 T01301004  RH  040%=      5-min Rain = 0
KMC1 152345Z 14004KT 13/M00 A3027 RMK A01 T01291004  RH  040%=      5-min Rain = 0
KMC1 152346Z 14004KT 13/M00 A3027 RMK A01 T01281004  RH  040%=      5-min Rain = 0
KMC1 152347Z 14004KT 13/M00 A3027 RMK A01 T01271004  RH  040%=      5-min Rain = 0
KMC1 152348Z 14005KT 13/M01 A3027 RMK A01 T01261005  RH  041%=      5-min Rain = 0
KMC1 152349Z 14004KT 13/M01 A3027 RMK A01 T01251005  RH  041%=      5-min Rain = 0
KMC1 152350Z 14004KT 13/M01 A3027 RMK A01 T01251005  RH  041%=      5-min Rain = 0
KMC1 152351Z 14005KT 12/M01 A3027 RMK A01 T01241005  RH  041%=      5-min Rain = 0
KMC1 152352Z 14004KT 12/M01 A3027 RMK A01 T01231005  RH  041%=      5-min Rain = 0
KMC1 152353Z 14004KT 12/M01 A3027 RMK A01 T01221006  RH  041%=      5-min Rain = 0
KMC1 152354Z 14004KT 12/M01 A3027 RMK A01 T01221005  RH  041%=      5-min Rain = 0
KMC1 152355Z 14004KT 12/M01 A3027 RMK A01 T01211005  RH  042%=      5-min Rain = 0
KMC1 152356Z 14005KT 12/M01 A3027 RMK A01 T01201005  RH  042%=      5-min Rain = 0
KMC1 152357Z 14004KT 12/M01 A3027 RMK A01 T01201006  RH  042%=      5-min Rain = 0
KMC1 152358Z 14005KT 12/M01 A3027 RMK A01 T01191005  RH  042%=      5-min Rain = 0
KMC1 152359Z 14005KT 12/M01 A3027 RMK A01 T01181005  RH  042%=      5-min Rain = 0
KMC1 160000Z 14005KT 12/M01 A3027 RMK A01 T01171006  RH  043%=      5-min Rain = 0
KMC1 160001Z 14005KT 12/M01 A3027 RMK A01 T01171006  RH  043%=      5-min Rain = 0
KMC1 160002Z 14005KT 12/M01 A3027 RMK A01 T01171006  RH  043%=      5-min Rain = 0
KMC1 160003Z 14005KT 12/M01 A3027 RMK A01 T01161006  RH  043%=      5-min Rain = 0
KMC1 160004Z 14005KT 12/M01 A3027 RMK A01 T01161006  RH  043%=      5-min Rain = 0
KMC1 160005Z 14005KT 12/M01 A3027 RMK A01 T01151007  RH  043%=      5-min Rain = 0
KMC1 160006Z 14005KT 12/M01 A3027 RMK A01 T01151007  RH  043%=      5-min Rain = 0
KMC1 160007Z 14005KT 11/M01 A3027 RMK A01 T01141007  RH  043%=      5-min Rain = 0
KMC1 160008Z 14005KT 11/M01 A3027 RMK A01 T01131008  RH  043%=      5-min Rain = 0
KMC1 160009Z 15005KT 11/M01 A3027 RMK A01 T01131008  RH  043%=      5-min Rain = 0
KMC1 160010Z 15005KT 11/M01 A3027 RMK A01 T01131008  RH  043%=      5-min Rain = 0
KMC1 160011Z 14005KT 11/M01 A3027 RMK A01 T01121009  RH  043%=      5-min Rain = 0
KMC1 160012Z 14005KT 11/M01 A3027 RMK A01 T01121010  RH  043%=      5-min Rain = 0
KMC1 160013Z 15004KT 11/M01 A3027 RMK A01 T01121010  RH  043%=      5-min Rain = 0
KMC1 160014Z 15005KT 11/M01 A3027 RMK A01 T01111010  RH  043%=      5-min Rain = 0
KMC1 160015Z 15005KT 11/M01 A3027 RMK A01 T01111011  RH  043%=      5-min Rain = 0
KMC1 160016Z 15005KT 11/M01 A3027 RMK A01 T01111012  RH  043%=      5-min Rain = 0
KMC1 160017Z 15005KT 11/M01 A3027 RMK A01 T01111013  RH  042%=      5-min Rain = 0
KMC1 160018Z 14005KT 11/M01 A3027 RMK A01 T01111013  RH  042%=      5-min Rain = 0
KMC1 160019Z 14005KT 11/M01 A3027 RMK A01 T01111013  RH  042%=      5-min Rain = 0
KMC1 160020Z 15005KT 11/M01 A3027 RMK A01 T01111013  RH  042%=      5-min Rain = 0
KMC1 160021Z 14005KT 11/M01 A3027 RMK A01 T01101014  RH  042%=      5-min Rain = 0
KMC1 160022Z 14005KT 11/M01 A3027 RMK A01 T01101014  RH  042%=      5-min Rain = 0
KMC1 160023Z 14005KT 11/M01 A3027 RMK A01 T01091014  RH  042%=      5-min Rain = 0
KMC1 160024Z 14005KT 11/M02 A3027 RMK A01 T01091015  RH  042%=      5-min Rain = 0
KMC1 160025Z 14005KT 11/M02 A3027 RMK A01 T01081015  RH  042%=      5-min Rain = 0
KMC1 160026Z 14005KT 11/M02 A3027 RMK A01 T01071016  RH  042%=      5-min Rain = 0
KMC1 160027Z 14005KT 11/M02 A3027 RMK A01 T01071016  RH  042%=      5-min Rain = 0
KMC1 160028Z 14005KT 11/M02 A3027 RMK A01 T01071016  RH  042%=      5-min Rain = 0
KMC1 160029Z 14005KT 11/M02 A3027 RMK A01 T01071016  RH  042%=      5-min Rain = 0
KMC1 160030Z 15005KT 11/M02 A3027 RMK A01 T01061016  RH  042%=      5-min Rain = 0
KMC1 160031Z 14005KT 11/M02 A3027 RMK A01 T01061017  RH  042%=      5-min Rain = 0
KMC1 160032Z 14005KT 11/M02 A3027 RMK A01 T01061017  RH  042%=      5-min Rain = 0
KMC1 160033Z 15005KT 11/M02 A3027 RMK A01 T01061017  RH  042%=      5-min Rain = 0
KMC1 160034Z 14005KT 11/M02 A3027 RMK A01 T01061017  RH  042%=      5-min Rain = 0
KMC1 160035Z 14005KT 11/M02 A3027 RMK A01 T01061017  RH  042%=      5-min Rain = 0
KMC1 160036Z 14005KT 11/M02 A3027 RMK A01 T01061017  RH  042%=      5-min Rain = 0
KMC1 160037Z 14005KT 11/M02 A3027 RMK A01 T01061017  RH  042%=      5-min Rain = 0
KMC1 160038Z 14005KT 11/M02 A3027 RMK A01 T01051017  RH  042%=      5-min Rain = 0
KMC1 160039Z 14005KT 11/M02 A3027 RMK A01 T01051018  RH  042%=      5-min Rain = 0
KMC1 160040Z 14005KT 11/M02 A3027 RMK A01 T01051018  RH  042%=      5-min Rain = 0
KMC1 160041Z 14005KT 11/M02 A3027 RMK A01 T01051018  RH  042%=      5-min Rain = 0
KMC1 160042Z 14005KT 11/M02 A3027 RMK A01 T01051018  RH  042%=      5-min Rain = 0
KMC1 160043Z 14005KT 11/M02 A3027 RMK A01 T01051018  RH  042%=      5-min Rain = 0
KMC1 160044Z 13005KT 10/M02 A3027 RMK A01 T01041019  RH  042%=      5-min Rain = 0
KMC1 160045Z 13005KT 10/M02 A3027 RMK A01 T01041019  RH  042%=      5-min Rain = 0
KMC1 160046Z 13005KT 10/M02 A3027 RMK A01 T01041019  RH  042%=      5-min Rain = 0
KMC1 160047Z 13005KT 10/M02 A3027 RMK A01 T01041019  RH  042%=      5-min Rain = 0
KMC1 160048Z 13004KT 10/M02 A3027 RMK A01 T01041019  RH  042%=      5-min Rain = 0
KMC1 160049Z 13005KT 10/M02 A3027 RMK A01 T01041019  RH  042%=      5-min Rain = 0
KMC1 160050Z 14005KT 10/M02 A3027 RMK A01 T01031019  RH  043%=      5-min Rain = 0
KMC1 160051Z 14005KT 10/M02 A3027 RMK A01 T01021019  RH  043%=      5-min Rain = 0
KMC1 160052Z 14005KT 10/M02 A3027 RMK A01 T01011019  RH  043%=      5-min Rain = 0
KMC1 160053Z 14005KT 10/M02 A3027 RMK A01 T01011019  RH  043%=      5-min Rain = 0
KMC1 160054Z 14005KT 10/M02 A3027 RMK A01 T01001019  RH  043%=      5-min Rain = 0
KMC1 160055Z 14005KT 10/M02 A3027 RMK A01 T01001019  RH  043%=      5-min Rain = 0
KMC1 160056Z 14005KT 10/M02 A3027 RMK A01 T01001019  RH  043%=      5-min Rain = 0
KMC1 160057Z 14005KT 10/M02 A3027 RMK A01 T01001019  RH  043%=      5-min Rain = 0
KMC1 160058Z 14004KT 10/M02 A3027 RMK A01 T01001019  RH  044%=      5-min Rain = 0
KMC1 160059Z 14004KT 10/M02 A3027 RMK A01 T00991019  RH  044%=      5-min Rain = 0
KMC1 160100Z 14004KT 10/M02 A3027 RMK A01 T00991019  RH  044%=      5-min Rain = 0
KMC1 160101Z 14004KT 10/M02 A3027 RMK A01 T00991019  RH  044%=      5-min Rain = 0
KMC1 160102Z 15004KT 10/M02 A3027 RMK A01 T00981019  RH  044%=      5-min Rain = 0
KMC1 160103Z 15004KT 10/M02 A3028 RMK A01 T00981019  RH  044%=      5-min Rain = 0
KMC1 160104Z 14004KT 10/M02 A3028 RMK A01 T00981019  RH  044%=      5-min Rain = 0
KMC1 160105Z 15004KT 10/M02 A3028 RMK A01 T00981019  RH  044%=      5-min Rain = 0
KMC1 160106Z 15004KT 10/M02 A3028 RMK A01 T00981019  RH  044%=      5-min Rain = 0
KMC1 160107Z 14004KT 10/M02 A3028 RMK A01 T00981018  RH  044%=      5-min Rain = 0
KMC1 160108Z 14003KT 10/M02 A3028 RMK A01 T00981018  RH  044%=      5-min Rain = 0
KMC1 160109Z 15004KT 10/M02 A3028 RMK A01 T00981019  RH  044%=      5-min Rain = 0
KMC1 160110Z 15003KT 10/M02 A3028 RMK A01 T00971018  RH  044%=      5-min Rain = 0
KMC1 160111Z 15003KT 10/M02 A3028 RMK A01 T00971018  RH  044%=      5-min Rain = 0
KMC1 160112Z 15003KT 10/M02 A3028 RMK A01 T00971018  RH  045%=      5-min Rain = 0
KMC1 160113Z 15003KT 10/M02 A3028 RMK A01 T00961018  RH  045%=      5-min Rain = 0
KMC1 160114Z 15003KT 10/M02 A3028 RMK A01 T00951017  RH  046%=      5-min Rain = 0
KMC1 160115Z 15002KT 09/M02 A3028 RMK A01 T00931016  RH  046%=      5-min Rain = 0
KMC1 160116Z 15003KT 09/M01 A3028 RMK A01 T00911014  RH  048%=      5-min Rain = 0
KMC1 160117Z 15002KT 09/M01 A3028 RMK A01 T00891012  RH  049%=      5-min Rain = 0
KMC1 160118Z 15002KT 09/M01 A3028 RMK A01 T00871012  RH  050%=      5-min Rain = 0
KMC1 160119Z 15002KT 09/M01 A3028 RMK A01 T00851012  RH  051%=      5-min Rain = 0
KMC1 160120Z 14003KT 08/M01 A3028 RMK A01 T00831012  RH  051%=      5-min Rain = 0
KMC1 160121Z 14002KT 08/M01 A3028 RMK A01 T00811012  RH  052%=      5-min Rain = 0
KMC1 160122Z 14003KT 08/M01 A3028 RMK A01 T00791013  RH  052%=      5-min Rain = 0
KMC1 160123Z 15003KT 08/M01 A3028 RMK A01 T00781012  RH  053%=      5-min Rain = 0
KMC1 160124Z 15003KT 08/M01 A3028 RMK A01 T00771012  RH  053%=      5-min Rain = 0
KMC1 160125Z 15002KT 08/M01 A3028 RMK A01 T00761011  RH  054%=      5-min Rain = 0
KMC1 160126Z 16002KT 08/M01 A3028 RMK A01 T00751011  RH  054%=      5-min Rain = 0
KMC1 160127Z 17002KT 08/M01 A3028 RMK A01 T00751009  RH  055%=      5-min Rain = 0
KMC1 160128Z 17001KT 07/M01 A3028 RMK A01 T00731007  RH  057%=      5-min Rain = 0
KMC1 160129Z 17001KT 07/M01 A3028 RMK A01 T00721009  RH  057%=      5-min Rain = 0
KMC1 160130Z 18001KT 07/M01 A3028 RMK A01 T00701010  RH  057%=      5-min Rain = 0
KMC1 160131Z 18002KT 07/M01 A3028 RMK A01 T00691010  RH  057%=      5-min Rain = 0
KMC1 160132Z 18002KT 07/M01 A3028 RMK A01 T00671011  RH  058%=      5-min Rain = 0
KMC1 160133Z 18003KT 07/M01 A3028 RMK A01 T00661011  RH  058%=      5-min Rain = 0
KMC1 160134Z 17003KT 07/M01 A3028 RMK A01 T00651010  RH  059%=      5-min Rain = 0
KMC1 160135Z 17003KT 06/M01 A3028 RMK A01 T00641011  RH  058%=      5-min Rain = 0
KMC1 160136Z 16003KT 06/M01 A3028 RMK A01 T00641012  RH  058%=      5-min Rain = 0
KMC1 160137Z 15003KT 06/M01 A3028 RMK A01 T00641012  RH  058%=      5-min Rain = 0
KMC1 160138Z 15003KT 06/M01 A3028 RMK A01 T00631013  RH  058%=      5-min Rain = 0
KMC1 160139Z 16003KT 06/M01 A3028 RMK A01 T00641012  RH  058%=      5-min Rain = 0
KMC1 160140Z 16002KT 06/M01 A3028 RMK A01 T00641013  RH  058%=      5-min Rain = 0
KMC1 160141Z 16002KT 06/M01 A3028 RMK A01 T00631013  RH  058%=      5-min Rain = 0
KMC1 160142Z 16002KT 06/M01 A3028 RMK A01 T00621012  RH  059%=      5-min Rain = 0
KMC1 160143Z 16002KT 06/M01 A3028 RMK A01 T00621011  RH  060%=      5-min Rain = 0
KMC1 160144Z 15003KT 06/M01 A3028 RMK A01 T00611010  RH  060%=      5-min Rain = 0
KMC1 160145Z 15003KT 06/M01 A3028 RMK A01 T00611011  RH  060%=      5-min Rain = 0
KMC1 160146Z 15002KT 06/M01 A3028 RMK A01 T00601012  RH  060%=      5-min Rain = 0
KMC1 160147Z 15002KT 06/M01 A3028 RMK A01 T00601011  RH  061%=      5-min Rain = 0
KMC1 160148Z 15002KT 06/M01 A3028 RMK A01 T00591010  RH  061%=      5-min Rain = 0
KMC1 160149Z 15002KT 06/M01 A3028 RMK A01 T00591009  RH  061%=      5-min Rain = 0
KMC1 160150Z 14003KT 06/M01 A3028 RMK A01 T00591010  RH  061%=      5-min Rain = 0
KMC1 160151Z 15003KT 06/M01 A3028 RMK A01 T00581011  RH  061%=      5-min Rain = 0
KMC1 160152Z 15003KT 06/M01 A3028 RMK A01 T00581011  RH  061%=      5-min Rain = 0
KMC1 160153Z 15003KT 06/M01 A3028 RMK A01 T00571011  RH  062%=      5-min Rain = 0
KMC1 160154Z 15003KT 06/M01 A3028 RMK A01 T00561011  RH  062%=      5-min Rain = 0
KMC1 160155Z 15003KT 06/M01 A3028 RMK A01 T00561011  RH  062%=      5-min Rain = 0
KMC1 160156Z 14004KT 06/M01 A3028 RMK A01 T00551012  RH  062%=      5-min Rain = 0
KMC1 160157Z 14003KT 06/M01 A3028 RMK A01 T00551013  RH  062%=      5-min Rain = 0
KMC1 160158Z 15002KT 05/M01 A3028 RMK A01 T00541013  RH  062%=      5-min Rain = 0
KMC1 160159Z 15002KT 05/M01 A3028 RMK A01 T00541011  RH  063%=      5-min Rain = 0
KMC1 160200Z 15002KT 05/M01 A3028 RMK A01 T00521009  RH  064%=      5-min Rain = 0
KMC1 160201Z 15001KT 05/M01 A3028 RMK A01 T00511010  RH  065%=      5-min Rain = 0
KMC1 160202Z 14001KT 05/M01 A3028 RMK A01 T00501011  RH  065%=      5-min Rain = 0
KMC1 160203Z 14001KT 05/M01 A3028 RMK A01 T00491012  RH  065%=      5-min Rain = 0
KMC1 160204Z 15000KT 05/M01 A3028 RMK A01 T00491011  RH  065%=      5-min Rain = 0
KMC1 160205Z 16000KT 05/M01 A3028 RMK A01 T00481011  RH  065%=      5-min Rain = 0
KMC1 160206Z 16001KT 05/M01 A3028 RMK A01 T00471012  RH  066%=      5-min Rain = 0
KMC1 160207Z 18001KT 05/M01 A3028 RMK A01 T00471012  RH  066%=      5-min Rain = 0
KMC1 160208Z 18001KT 05/M01 A3028 RMK A01 T00461012  RH  066%=      5-min Rain = 0
KMC1 160209Z 18002KT 05/M01 A3028 RMK A01 T00461012  RH  066%=      5-min Rain = 0
KMC1 160210Z 17003KT 05/M01 A3028 RMK A01 T00461012  RH  066%=      5-min Rain = 0
KMC1 160211Z 17003KT 05/M01 A3028 RMK A01 T00451012  RH  066%=      5-min Rain = 0
KMC1 160212Z 16004KT 05/M01 A3028 RMK A01 T00451012  RH  066%=      5-min Rain = 0
KMC1 160213Z 15004KT 05/M01 A3028 RMK A01 T00451012  RH  066%=      5-min Rain = 0
KMC1 160214Z 15005KT 05/M01 A3028 RMK A01 T00461012  RH  066%=      5-min Rain = 0
KMC1 160215Z 14005KT 05/M01 A3028 RMK A01 T00481012  RH  065%=      5-min Rain = 0
KMC1 160216Z 14005KT 05/M01 A3028 RMK A01 T00531012  RH  063%=      5-min Rain = 0
KMC1 160217Z 14005KT 06/M01 A3028 RMK A01 T00591011  RH  061%=      5-min Rain = 0
KMC1 160218Z 14005KT 07/M01 A3028 RMK A01 T00651011  RH  058%=      5-min Rain = 0
KMC1 160219Z 14005KT 07/M01 A3028 RMK A01 T00701010  RH  057%=      5-min Rain = 0
KMC1 160220Z 14005KT 07/M01 A3028 RMK A01 T00741010  RH  055%=      5-min Rain = 0
KMC1 160221Z 14005KT 08/M01 A3028 RMK A01 T00781011  RH  054%=      5-min Rain = 0
KMC1 160222Z 15004KT 08/M01 A3028 RMK A01 T00801011  RH  053%=      5-min Rain = 0
KMC1 160223Z 14004KT 08/M01 A3028 RMK A01 T00821011  RH  052%=      5-min Rain = 0
KMC1 160224Z 14004KT 08/M01 A3028 RMK A01 T00831011  RH  051%=      5-min Rain = 0
KMC1 160225Z 15004KT 08/M01 A3028 RMK A01 T00831011  RH  052%=      5-min Rain = 0
KMC1 160226Z 15003KT 08/M01 A3028 RMK A01 T00801011  RH  053%=      5-min Rain = 0
KMC1 160227Z 15003KT 08/M01 A3029 RMK A01 T00761012  RH  054%=      5-min Rain = 0
KMC1 160228Z 15003KT 07/M01 A3029 RMK A01 T00701012  RH  056%=      5-min Rain = 0
KMC1 160229Z 15003KT 06/M01 A3029 RMK A01 T00641013  RH  058%=      5-min Rain = 0
KMC1 160230Z 15003KT 06/M01 A3029 RMK A01 T00591014  RH  059%=      5-min Rain = 0
KMC1 160231Z 16003KT 06/M02 A3029 RMK A01 T00551015  RH  061%=      5-min Rain = 0
KMC1 160232Z 16003KT 05/M02 A3029 RMK A01 T00511016  RH  062%=      5-min Rain = 0
KMC1 160233Z 17002KT 05/M02 A3029 RMK A01 T00491015  RH  063%=      5-min Rain = 0
KMC1 160234Z 18002KT 05/M02 A3029 RMK A01 T00471015  RH  064%=      5-min Rain = 0
KMC1 160235Z 18002KT 05/M02 A3029 RMK A01 T00461015  RH  065%=      5-min Rain = 0
KMC1 160236Z 18002KT 05/M01 A3029 RMK A01 T00451014  RH  065%=      5-min Rain = 0
KMC1 160237Z 19002KT 04/M01 A3029 RMK A01 T00441014  RH  066%=      5-min Rain = 0
KMC1 160238Z 19003KT 04/M01 A3029 RMK A01 T00441014  RH  066%=      5-min Rain = 0
KMC1 160239Z 20003KT 04/M01 A3029 RMK A01 T00441014  RH  066%=      5-min Rain = 0
KMC1 160240Z 19003KT 04/M01 A3029 RMK A01 T00431014  RH  066%=      5-min Rain = 0
KMC1 160241Z 19003KT 04/M01 A3029 RMK A01 T00431013  RH  067%=      5-min Rain = 0
KMC1 160242Z 20003KT 04/M01 A3029 RMK A01 T00421013  RH  067%=      5-min Rain = 0
KMC1 160243Z 20003KT 04/M01 A3029 RMK A01 T00421013  RH  068%=      5-min Rain = 0
KMC1 160244Z 20003KT 04/M01 A3029 RMK A01 T00411013  RH  068%=      5-min Rain = 0
KMC1 160245Z 20004KT 04/M01 A3029 RMK A01 T00411013  RH  068%=      5-min Rain = 0
KMC1 160246Z 20004KT 04/M01 A3029 RMK A01 T00411014  RH  068%=      5-min Rain = 0
KMC1 160247Z 20004KT 04/M01 A3029 RMK A01 T00411014  RH  068%=      5-min Rain = 0
KMC1 160248Z 20004KT 04/M01 A3029 RMK A01 T00401014  RH  068%=      5-min Rain = 0
KMC1 160249Z 20004KT 04/M01 A3029 RMK A01 T00391014  RH  068%=      5-min Rain = 0
KMC1 160250Z 20004KT 04/M02 A3029 RMK A01 T00401015  RH  068%=      5-min Rain = 0
KMC1 160251Z 19004KT 04/M02 A3029 RMK A01 T00411015  RH  067%=      5-min Rain = 0
KMC1 160252Z 19004KT 04/M01 A3029 RMK A01 T00431014  RH  067%=      5-min Rain = 0
KMC1 160253Z 19005KT 05/M01 A3029 RMK A01 T00451014  RH  066%=      5-min Rain = 0
KMC1 160254Z 19004KT 05/M01 A3029 RMK A01 T00461014  RH  065%=      5-min Rain = 0
KMC1 160255Z 19004KT 05/M01 A3029 RMK A01 T00481014  RH  064%=      5-min Rain = 0
KMC1 160256Z 19004KT 05/M01 A3029 RMK A01 T00501014  RH  064%=      5-min Rain = 0
KMC1 160257Z 19004KT 05/M01 A3029 RMK A01 T00501014  RH  063%=      5-min Rain = 0
KMC1 160258Z 19004KT 05/M01 A3029 RMK A01 T00501014  RH  063%=      5-min Rain = 0
KMC1 160259Z 19004KT 05/M01 A3029 RMK A01 T00501014  RH  063%=      5-min Rain = 0
KMC1 160300Z 19003KT 05/M01 A3029 RMK A01 T00491014  RH  063%=      5-min Rain = 0
KMC1 160301Z 18004KT 05/M01 A3029 RMK A01 T00491014  RH  064%=      5-min Rain = 0
KMC1 160302Z 19004KT 05/M01 A3029 RMK A01 T00481014  RH  064%=      5-min Rain = 0
KMC1 160303Z 19004KT 05/M01 A3029 RMK A01 T00481014  RH  064%=      5-min Rain = 0
KMC1 160304Z 18004KT 05/M01 A3029 RMK A01 T00481014  RH  064%=      5-min Rain = 0
KMC1 160305Z 18004KT 05/M01 A3029 RMK A01 T00481014  RH  064%=      5-min Rain = 0
KMC1 160306Z 17004KT 05/M02 A3029 RMK A01 T00481015  RH  064%=      5-min Rain = 0
KMC1 160307Z 17004KT 05/M02 A3029 RMK A01 T00481015  RH  064%=      5-min Rain = 0
KMC1 160308Z 17004KT 05/M02 A3029 RMK A01 T00481015  RH  064%=      5-min Rain = 0
KMC1 160309Z 17004KT 05/M02 A3029 RMK A01 T00481016  RH  063%=      5-min Rain = 0
KMC1 160310Z 16005KT 05/M02 A3029 RMK A01 T00481016  RH  063%=      5-min Rain = 0
KMC1 160311Z 17006KT 05/M02 A3029 RMK A01 T00481015  RH  063%=      5-min Rain = 0
KMC1 160312Z 16005KT 05/M02 A3029 RMK A01 T00501015  RH  063%=      5-min Rain = 0
KMC1 160313Z 16005KT 05/M01 A3029 RMK A01 T00511014  RH  063%=      5-min Rain = 0
KMC1 160314Z 16005KT 05/M01 A3029 RMK A01 T00521014  RH  063%=      5-min Rain = 0
KMC1 160315Z 16004KT 05/M01 A3029 RMK A01 T00521013  RH  062%=      5-min Rain = 0
KMC1 160316Z 15004KT 05/M01 A3029 RMK A01 T00531013  RH  062%=      5-min Rain = 0
KMC1 160317Z 16004KT 05/M01 A3029 RMK A01 T00541013  RH  062%=      5-min Rain = 0
KMC1 160318Z 16004KT 05/M01 A3029 RMK A01 T00541013  RH  062%=      5-min Rain = 0
KMC1 160319Z 16004KT 06/M01 A3029 RMK A01 T00551013  RH  062%=      5-min Rain = 0
KMC1 160320Z 15004KT 06/M01 A3029 RMK A01 T00551013  RH  062%=      5-min Rain = 0
KMC1 160321Z 16004KT 06/M01 A3029 RMK A01 T00551013  RH  061%=      5-min Rain = 0
KMC1 160322Z 15003KT 06/M01 A3029 RMK A01 T00551013  RH  061%=      5-min Rain = 0
KMC1 160323Z 16003KT 06/M01 A3029 RMK A01 T00561013  RH  061%=      5-min Rain = 0
KMC1 160324Z 15003KT 06/M01 A3029 RMK A01 T00551014  RH  061%=      5-min Rain = 0
KMC1 160325Z 16003KT 05/M01 A3029 RMK A01 T00541013  RH  062%=      5-min Rain = 0
KMC1 160326Z 15003KT 05/M01 A3029 RMK A01 T00531013  RH  062%=      5-min Rain = 0
KMC1 160327Z 16003KT 05/M01 A3029 RMK A01 T00521012  RH  063%=      5-min Rain = 0
KMC1 160328Z 15003KT 05/M01 A3029 RMK A01 T00511013  RH  063%=      5-min Rain = 0
KMC1 160329Z 15003KT 05/M01 A3029 RMK A01 T00501014  RH  063%=      5-min Rain = 0
KMC1 160330Z 16003KT 05/M01 A3029 RMK A01 T00491014  RH  064%=      5-min Rain = 0
KMC1 160331Z 15003KT 05/M01 A3029 RMK A01 T00491014  RH  064%=      5-min Rain = 0
KMC1 160332Z 16003KT 05/M01 A3028 RMK A01 T00481014  RH  064%=      5-min Rain = 0
KMC1 160333Z 16003KT 05/M02 A3029 RMK A01 T00471015  RH  064%=      5-min Rain = 0
KMC1 160334Z 16003KT 05/M02 A3029 RMK A01 T00471015  RH  064%=      5-min Rain = 0
KMC1 160335Z 16003KT 05/M02 A3029 RMK A01 T00471015  RH  064%=      5-min Rain = 0
KMC1 160336Z 16003KT 05/M02 A3029 RMK A01 T00461015  RH  064%=      5-min Rain = 0
KMC1 160337Z 17003KT 05/M02 A3029 RMK A01 T00461015  RH  064%=      5-min Rain = 0
KMC1 160338Z 17003KT 05/M02 A3029 RMK A01 T00461015  RH  065%=      5-min Rain = 0
KMC1 160339Z 17003KT 05/M02 A3029 RMK A01 T00451016  RH  065%=      5-min Rain = 0
KMC1 160340Z 17003KT 05/M02 A3029 RMK A01 T00451016  RH  065%=      5-min Rain = 0
KMC1 160341Z 17003KT 05/M02 A3029 RMK A01 T00451016  RH  065%=      5-min Rain = 0
KMC1 160342Z 17003KT 04/M02 A3029 RMK A01 T00441016  RH  065%=      5-min Rain = 0
KMC1 160343Z 17003KT 04/M02 A3029 RMK A01 T00441016  RH  065%=      5-min Rain = 0
KMC1 160344Z 17003KT 04/M01 A3029 RMK A01 T00441014  RH  066%=      5-min Rain = 0
KMC1 160345Z 17003KT 04/M01 A3028 RMK A01 T00431014  RH  066%=      5-min Rain = 0
KMC1 160346Z 17003KT 04/M01 A3028 RMK A01 T00431014  RH  066%=      5-min Rain = 0
KMC1 160347Z 18002KT 04/M02 A3028 RMK A01 T00421015  RH  066%=      5-min Rain = 0
KMC1 160348Z 17002KT 04/M01 A3028 RMK A01 T00411014  RH  067%=      5-min Rain = 0
KMC1 160349Z 17002KT 04/M01 A3028 RMK A01 T00411014  RH  068%=      5-min Rain = 0
KMC1 160350Z 15003KT 04/M01 A3028 RMK A01 T00391014  RH  068%=      5-min Rain = 0
KMC1 160351Z 15003KT 04/M01 A3028 RMK A01 T00391013  RH  069%=      5-min Rain = 0
KMC1 160352Z 15002KT 04/M01 A3028 RMK A01 T00381014  RH  069%=      5-min Rain = 0
KMC1 160353Z 15003KT 04/M02 A3028 RMK A01 T00371015  RH  069%=      5-min Rain = 0
KMC1 160354Z 14002KT 04/M01 A3028 RMK A01 T00361014  RH  070%=      5-min Rain = 0
KMC1 160355Z 14003KT 03/M02 A3028 RMK A01 T00341015  RH  070%=      5-min Rain = 0
KMC1 160356Z 14003KT 03/M02 A3028 RMK A01 T00331015  RH  071%=      5-min Rain = 0
KMC1 160357Z 15002KT 03/M02 A3028 RMK A01 T00331015  RH  071%=      5-min Rain = 0
KMC1 160358Z 15002KT 03/M02 A3028 RMK A01 T00321015  RH  071%=      5-min Rain = 0
KMC1 160359Z 15002KT 03/M02 A3028 RMK A01 T00311015  RH  072%=      5-min Rain = 0
KMC1 160400Z 15001KT 03/M02 A3028 RMK A01 T00301015  RH  072%=      5-min Rain = 0
KMC1 160401Z 15002KT 03/M02 A3028 RMK A01 T00291016  RH  072%=      5-min Rain = 0
KMC1 160402Z 15001KT 03/M02 A3028 RMK A01 T00281016  RH  072%=      5-min Rain = 0
KMC1 160403Z 15001KT 03/M02 A3028 RMK A01 T00281017  RH  073%=      5-min Rain = 0
KMC1 160404Z 15001KT 03/M02 A3028 RMK A01 T00261017  RH  073%=      5-min Rain = 0
KMC1 160405Z 15001KT 03/M02 A3028 RMK A01 T00261017  RH  073%=      5-min Rain = 0
KMC1 160406Z 15001KT 03/M02 A3028 RMK A01 T00251018  RH  074%=      5-min Rain = 0
KMC1 160407Z 15001KT 02/M02 A3028 RMK A01 T00241017  RH  074%=      5-min Rain = 0
KMC1 160408Z 15000KT 02/M02 A3028 RMK A01 T00241018  RH  074%=      5-min Rain = 0
KMC1 160409Z 15001KT 02/M02 A3028 RMK A01 T00231018  RH  074%=      5-min Rain = 0
KMC1 160410Z 12000KT 02/M02 A3028 RMK A01 T00231018  RH  074%=      5-min Rain = 0
KMC1 160411Z 13001KT 02/M02 A3028 RMK A01 T00231017  RH  075%=      5-min Rain = 0
KMC1 160412Z 13000KT 02/M02 A3029 RMK A01 T00231018  RH  075%=      5-min Rain = 0
KMC1 160413Z 13000KT 02/M02 A3029 RMK A01 T00221018  RH  075%=      5-min Rain = 0
KMC1 160414Z 13001KT 02/M02 A3029 RMK A01 T00221018  RH  075%=      5-min Rain = 0
KMC1 160415Z 13000KT 02/M02 A3029 RMK A01 T00211018  RH  075%=      5-min Rain = 0
KMC1 160416Z 13001KT 02/M02 A3029 RMK A01 T00211018  RH  075%=      5-min Rain = 0
KMC1 160417Z 12001KT 02/M02 A3029 RMK A01 T00211018  RH  075%=      5-min Rain = 0
KMC1 160418Z 13001KT 02/M02 A3029 RMK A01 T00211019  RH  075%=      5-min Rain = 0
KMC1 160419Z 14001KT 02/M02 A3029 RMK A01 T00211018  RH  075%=      5-min Rain = 0
KMC1 160420Z 14001KT 02/M02 A3029 RMK A01 T00211018  RH  076%=      5-min Rain = 0
KMC1 160421Z 14001KT 02/M02 A3029 RMK A01 T00211018  RH  076%=      5-min Rain = 0
KMC1 160422Z 14001KT 02/M02 A3029 RMK A01 T00211018  RH  076%=      5-min Rain = 0
KMC1 160423Z 13002KT 02/M02 A3029 RMK A01 T00211018  RH  075%=      5-min Rain = 0
KMC1 160424Z 13001KT 02/M02 A3029 RMK A01 T00201019  RH  075%=      5-min Rain = 0
KMC1 160425Z 12001KT 02/M02 A3029 RMK A01 T00201019  RH  075%=      5-min Rain = 0
KMC1 160426Z 12001KT 02/M02 A3028 RMK A01 T00201019  RH  076%=      5-min Rain = 0
KMC1 160427Z 11002KT 02/M02 A3028 RMK A01 T00201018  RH  076%=      5-min Rain = 0
KMC1 160428Z 12002KT 02/M02 A3028 RMK A01 T00201018  RH  076%=      5-min Rain = 0
KMC1 160429Z 12002KT 02/M02 A3028 RMK A01 T00201019  RH  076%=      5-min Rain = 0
KMC1 160430Z 11002KT 02/M02 A3028 RMK A01 T00201019  RH  076%=      5-min Rain = 0
KMC1 160431Z 11002KT 02/M02 A3028 RMK A01 T00201019  RH  076%=      5-min Rain = 0
KMC1 160432Z 11002KT 02/M02 A3028 RMK A01 T00201018  RH  076%=      5-min Rain = 0
KMC1 160433Z 10001KT 02/M02 A3028 RMK A01 T00211018  RH  076%=      5-min Rain = 0
KMC1 160434Z 10001KT 02/M02 A3028 RMK A01 T00211018  RH  075%=      5-min Rain = 0
KMC1 160435Z 09001KT 02/M02 A3028 RMK A01 T00221018  RH  075%=      5-min Rain = 0
KMC1 160436Z 11001KT 02/M02 A3028 RMK A01 T00221018  RH  075%=      5-min Rain = 0
KMC1 160437Z 09001KT 02/M02 A3028 RMK A01 T00221018  RH  075%=      5-min Rain = 0
KMC1 160438Z 09001KT 02/M02 A3028 RMK A01 T00231017  RH  075%=      5-min Rain = 0
KMC1 160439Z 09002KT 02/M02 A3028 RMK A01 T00241016  RH  075%=      5-min Rain = 0
KMC1 160440Z 09002KT 02/M02 A3028 RMK A01 T00241017  RH  075%=      5-min Rain = 0
KMC1 160441Z 09002KT 02/M02 A3028 RMK A01 T00241016  RH  075%=      5-min Rain = 0
KMC1 160442Z 09002KT 03/M02 A3028 RMK A01 T00251016  RH  074%=      5-min Rain = 0
KMC1 160443Z 09002KT 03/M02 A3028 RMK A01 T00261016  RH  074%=      5-min Rain = 0
KMC1 160444Z 11002KT 03/M02 A3028 RMK A01 T00261017  RH  073%=      5-min Rain = 0
KMC1 160445Z 10002KT 03/M02 A3028 RMK A01 T00261018  RH  073%=      5-min Rain = 0
KMC1 160446Z 10002KT 03/M02 A3028 RMK A01 T00251018  RH  073%=      5-min Rain = 0
KMC1 160447Z 10001KT 02/M02 A3027 RMK A01 T00241018  RH  074%=      5-min Rain = 0
KMC1 160448Z 10001KT 02/M02 A3027 RMK A01 T00241017  RH  074%=      5-min Rain = 0
KMC1 160449Z 11001KT 02/M02 A3027 RMK A01 T00231018  RH  074%=      5-min Rain = 0
KMC1 160450Z 12000KT 02/M02 A3027 RMK A01 T00221018  RH  075%=      5-min Rain = 0
KMC1 160451Z 00000KT 02/M02 A3027 RMK A01 T00221018  RH  075%=      5-min Rain = 0
KMC1 160452Z 00000KT 02/M02 A3027 RMK A01 T00211018  RH  076%=      5-min Rain = 0
KMC1 160453Z 00000KT 02/M02 A3027 RMK A01 T00201018  RH  076%=      5-min Rain = 0
KMC1 160454Z 00000KT 02/M02 A3027 RMK A01 T00191019  RH  076%=      5-min Rain = 0
KMC1 160455Z 24002KT 02/M02 A3027 RMK A01 T00171019  RH  077%=      5-min Rain = 0
KMC1 160456Z 24003KT 02/M02 A3027 RMK A01 T00161019  RH  077%=      5-min Rain = 0
KMC1 160457Z 24003KT 02/M02 A3027 RMK A01 T00151020  RH  078%=      5-min Rain = 0
KMC1 160458Z 24003KT 01/M02 A3027 RMK A01 T00141020  RH  078%=      5-min Rain = 0
KMC1 160459Z 23002KT 01/M02 A3027 RMK A01 T00141020  RH  078%=      5-min Rain = 0
KMC1 160500Z 22002KT 01/M02 A3027 RMK A01 T00131020  RH  078%=      5-min Rain = 0
KMC1 160501Z 21003KT 01/M02 A3027 RMK A01 T00131021  RH  078%=      5-min Rain = 0
KMC1 160502Z 22003KT 01/M02 A3027 RMK A01 T00121021  RH  079%=      5-min Rain = 0
KMC1 160503Z 22003KT 01/M02 A3027 RMK A01 T00121021  RH  079%=      5-min Rain = 0
KMC1 160504Z 23003KT 01/M02 A3027 RMK A01 T00111021  RH  079%=      5-min Rain = 0
KMC1 160505Z 21003KT 01/M02 A3027 RMK A01 T00111021  RH  079%=      5-min Rain = 0
KMC1 160506Z 20003KT 01/M02 A3027 RMK A01 T00101021  RH  080%=      5-min Rain = 0
KMC1 160507Z 20002KT 01/M02 A3027 RMK A01 T00101021  RH  080%=      5-min Rain = 0
KMC1 160508Z 18002KT 01/M02 A3027 RMK A01 T00101021  RH  080%=      5-min Rain = 0
KMC1 160509Z 16002KT 01/M02 A3027 RMK A01 T00101021  RH  080%=      5-min Rain = 0
KMC1 160510Z 17002KT 01/M02 A3027 RMK A01 T00101021  RH  080%=      5-min Rain = 0
KMC1 160511Z 18002KT 01/M02 A3027 RMK A01 T00091021  RH  080%=      5-min Rain = 0
KMC1 160512Z 20003KT 01/M02 A3027 RMK A01 T00091021  RH  080%=      5-min Rain = 0
KMC1 160513Z 20003KT 01/M02 A3027 RMK A01 T00101021  RH  080%=      5-min Rain = 0
KMC1 160514Z 19002KT 01/M02 A3027 RMK A01 T00101021  RH  080%=      5-min Rain = 0
KMC1 160515Z 18002KT 01/M02 A3027 RMK A01 T00101021  RH  080%=      5-min Rain = 0
KMC1 160516Z 20003KT 01/M02 A3027 RMK A01 T00101021  RH  080%=      5-min Rain = 0
KMC1 160517Z 21004KT 01/M02 A3027 RMK A01 T00101021  RH  080%=      5-min Rain = 0
KMC1 160518Z 20004KT 01/M02 A3027 RMK A01 T00091022  RH  080%=      5-min Rain = 0
KMC1 160519Z 21004KT 01/M02 A3027 RMK A01 T00091022  RH  080%=      5-min Rain = 0
KMC1 160520Z 21004KT 01/M02 A3027 RMK A01 T00091022  RH  080%=      5-min Rain = 0
KMC1 160521Z 20004KT 01/M02 A3027 RMK A01 T00081022  RH  080%=      5-min Rain = 0
KMC1 160522Z 21004KT 01/M02 A3027 RMK A01 T00081022  RH  081%=      5-min Rain = 0
KMC1 160523Z 21005KT 01/M02 A3027 RMK A01 T00071022  RH  081%=      5-min Rain = 0
KMC1 160524Z 20005KT 01/M02 A3027 RMK A01 T00071021  RH  081%=      5-min Rain = 0
KMC1 160525Z 20004KT 01/M02 A3027 RMK A01 T00081020  RH  081%=      5-min Rain = 0
KMC1 160526Z 19003KT 01/M02 A3027 RMK A01 T00091020  RH  081%=      5-min Rain = 0
KMC1 160527Z 18004KT 01/M02 A3027 RMK A01 T00101019  RH  081%=      5-min Rain = 0
KMC1 160528Z 19004KT 01/M02 A3027 RMK A01 T00111018  RH  081%=      5-min Rain = 0
KMC1 160529Z 20004KT 01/M02 A3027 RMK A01 T00111018  RH  081%=      5-min Rain = 0
KMC1 160530Z 19004KT 01/M02 A3027 RMK A01 T00121018  RH  080%=      5-min Rain = 0
KMC1 160531Z 19004KT 01/M02 A3027 RMK A01 T00121019  RH  080%=      5-min Rain = 0
KMC1 160532Z 19004KT 01/M02 A3027 RMK A01 T00121019  RH  080%=      5-min Rain = 0
KMC1 160533Z 18004KT 01/M02 A3027 RMK A01 T00121019  RH  080%=      5-min Rain = 0
KMC1 160534Z 18004KT 01/M02 A3027 RMK A01 T00131019  RH  080%=      5-min Rain = 0
KMC1 160535Z 17004KT 01/M02 A3027 RMK A01 T00131019  RH  080%=      5-min Rain = 0
KMC1 160536Z 18004KT 01/M02 A3027 RMK A01 T00131018  RH  080%=      5-min Rain = 0
KMC1 160537Z 18004KT 01/M02 A3027 RMK A01 T00141018  RH  079%=      5-min Rain = 0
KMC1 160538Z 17004KT 02/M02 A3027 RMK A01 T00151018  RH  079%=      5-min Rain = 0
KMC1 160539Z 17004KT 02/M02 A3027 RMK A01 T00151018  RH  079%=      5-min Rain = 0
KMC1 160540Z 17004KT 02/M02 A3027 RMK A01 T00151017  RH  079%=      5-min Rain = 0
KMC1 160541Z 17004KT 02/M02 A3027 RMK A01 T00151017  RH  079%=      5-min Rain = 0
KMC1 160542Z 18004KT 02/M02 A3027 RMK A01 T00151018  RH  079%=      5-min Rain = 0
KMC1 160543Z 17005KT 01/M02 A3027 RMK A01 T00141018  RH  079%=      5-min Rain = 0
KMC1 160544Z 18004KT 01/M02 A3027 RMK A01 T00141018  RH  079%=      5-min Rain = 0
KMC1 160545Z 18004KT 01/M02 A3027 RMK A01 T00141017  RH  080%=      5-min Rain = 0
KMC1 160546Z 18004KT 01/M02 A3027 RMK A01 T00141017  RH  080%=      5-min Rain = 0
KMC1 160547Z 19004KT 01/M02 A3027 RMK A01 T00141017  RH  080%=      5-min Rain = 0
KMC1 160548Z 19004KT 02/M02 A3027 RMK A01 T00151017  RH  080%=      5-min Rain = 0
KMC1 160549Z 19003KT 02/M02 A3027 RMK A01 T00151016  RH  080%=      5-min Rain = 0
KMC1 160550Z 19003KT 02/M02 A3027 RMK A01 T00151016  RH  080%=      5-min Rain = 0
KMC1 160551Z 19004KT 02/M02 A3027 RMK A01 T00151016  RH  079%=      5-min Rain = 0
KMC1 160552Z 18004KT 02/M02 A3027 RMK A01 T00151016  RH  079%=      5-min Rain = 0
KMC1 160553Z 18004KT 02/M02 A3027 RMK A01 T00161016  RH  079%=      5-min Rain = 0
KMC1 160554Z 18003KT 02/M02 A3027 RMK A01 T00171015  RH  079%=      5-min Rain = 0
KMC1 160555Z 18004KT 02/M02 A3027 RMK A01 T00181015  RH  079%=      5-min Rain = 0
KMC1 160556Z 18003KT 02/M02 A3027 RMK A01 T00171016  RH  079%=      5-min Rain = 0
KMC1 160557Z 18003KT 02/M02 A3027 RMK A01 T00181016  RH  078%=      5-min Rain = 0
KMC1 160558Z 19002KT 02/M02 A3027 RMK A01 T00181016  RH  078%=      5-min Rain = 0
KMC1 160559Z 19002KT 02/M02 A3027 RMK A01 T00181016  RH  078%=      5-min Rain = 0

Page generated in 0.0714 seconds.